Wetterdaten: Donnerstag, 25.10.2018
Datum Zeit Temp. Aussen Temp. o. S. +5cm Feuchte Auss Luftdruck Regen Sonnenschein Regendauer Solar Windben Empfang
25.10.2018 00:00 12,8 C 11,7 C 11,7 C 96 % 1021,4 hPa 0,0 l/m 0 min 0 min 0 W/m 6,4 km/h (2 Bft) 95,74 %
25.10.2018 00:02 12,8 C 11,7 C 11,7 C 96 % 1021,4 hPa 0,0 l/m 0 min 0 min 0 W/m 0,0 km/h (0 Bft) 9,52 %
25.10.2018 00:04 12,8 C 11,7 C 11,7 C 96 % 1021,3 hPa 0,0 l/m 0 min 0 min 0 W/m 6,4 km/h (2 Bft) 91,11 %
25.10.2018 00:07 12,8 C 11,7 C 11,7 C 96 % 1021,4 hPa 0,0 l/m 0 min 0 min 0 W/m 6,4 km/h (2 Bft) 91,11 %
25.10.2018 00:08 12,9 C 11,7 C 11,7 C 96 % 1021,4 hPa 0,0 l/m 0 min 0 min 0 W/m 6,4 km/h (2 Bft) 91,11 %
25.10.2018 00:10 12,9 C 11,7 C 11,7 C 96 % 1021,4 hPa 0,0 l/m 0 min 0 min 0 W/m 6,4 km/h (2 Bft) 93,85 %
25.10.2018 00:12 12,8 C 11,7 C 11,7 C 96 % 1021,3 hPa 0,0 l/m 0 min 0 min 0 W/m 3,2 km/h (1 Bft) 91,49 %
25.10.2018 00:14 12,8 C 11,7 C 11,7 C 96 % 1021,3 hPa 0,0 l/m 0 min 0 min 0 W/m 6,4 km/h (2 Bft) 93,62 %
25.10.2018 00:16 12,9 C 11,7 C 11,7 C 96 % 1021,3 hPa 0,0 l/m 0 min 0 min 0 W/m 3,2 km/h (1 Bft) 93,88 %
25.10.2018 00:18 12,9 C 11,7 C 11,7 C 96 % 1021,3 hPa 0,0 l/m 0 min 0 min 0 W/m 9,7 km/h (2 Bft) 91,49 %
25.10.2018 00:20 12,9 C 11,7 C 11,7 C 96 % 1021,3 hPa 0,0 l/m 0 min 0 min 0 W/m 3,2 km/h (1 Bft) 93,62 %
25.10.2018 00:22 12,9 C 11,7 C 11,7 C 96 % 1021,3 hPa 0,0 l/m 0 min 0 min 0 W/m 3,2 km/h (1 Bft) 93,62 %
25.10.2018 00:24 12,9 C 11,7 C 11,7 C 96 % 1021,2 hPa 0,0 l/m 0 min 0 min 0 W/m 0,0 km/h (0 Bft) 93,62 %
25.10.2018 00:26 12,9 C 11,7 C 11,7 C 96 % 1021,2 hPa 0,0 l/m 0 min 0 min 0 W/m 0,0 km/h (0 Bft) 91,49 %
25.10.2018 00:28 12,9 C 11,7 C 11,7 C 96 % 1021,1 hPa 0,0 l/m 0 min 0 min 0 W/m 0,0 km/h (0 Bft) 91,30 %
25.10.2018 00:30 12,9 C 11,7 C 11,7 C 96 % 1021,2 hPa 0,0 l/m 0 min 0 min 0 W/m 0,0 km/h (0 Bft) 95,74 %
25.10.2018 00:32 12,9 C 11,7 C 11,7 C 96 % 1021,2 hPa 0,0 l/m 0 min 0 min 0 W/m 6,4 km/h (2 Bft) 95,83 %
25.10.2018 00:34 12,9 C 11,7 C 11,7 C 96 % 1021,1 hPa 0,0 l/m 0 min 0 min 0 W/m 6,4 km/h (2 Bft) 95,74 %
25.10.2018 00:38 12,9 C 11,7 C 11,7 C 96 % 1021,1 hPa 0,0 l/m 0 min 0 min 0 W/m 3,2 km/h (1 Bft) 94,68 %
25.10.2018 00:40 12,9 C 11,7 C 11,7 C 96 % 1021,1 hPa 0,0 l/m 0 min 0 min 0 W/m 3,2 km/h (1 Bft) 91,30 %
25.10.2018 00:42 12,9 C 11,7 C 11,7 C 96 % 1021,1 hPa 0,0 l/m 0 min 0 min 0 W/m 6,4 km/h (2 Bft) 95,74 %
25.10.2018 00:44 12,8 C 11,7 C 11,7 C 96 % 1021,1 hPa 0,0 l/m 0 min 0 min 0 W/m 12,9 km/h (3 Bft) 95,74 %
25.10.2018 00:46 12,8 C 11,7 C 11,7 C 96 % 1021,2 hPa 0,0 l/m 0 min 0 min 0 W/m 6,4 km/h (2 Bft) 89,80 %
25.10.2018 00:48 12,8 C 11,7 C 11,7 C 97 % 1021,1 hPa 0,0 l/m 0 min 0 min 0 W/m 6,4 km/h (2 Bft) 97,87 %
25.10.2018 00:50 12,8 C 11,7 C 11,7 C 97 % 1021,1 hPa 0,0 l/m 0 min 0 min 0 W/m 6,4 km/h (2 Bft) 95,65 %
25.10.2018 00:52 12,8 C 11,7 C 11,7 C 97 % 1021,1 hPa 0,0 l/m 0 min 0 min 0 W/m 6,4 km/h (2 Bft) 93,62 %
25.10.2018 00:54 12,8 C 11,7 C 11,7 C 97 % 1021,1 hPa 0,0 l/m 0 min 0 min 0 W/m 3,2 km/h (1 Bft) 95,74 %
25.10.2018 00:56 12,8 C 11,7 C 11,7 C 96 % 1021,1 hPa 0,0 l/m 0 min 0 min 0 W/m 3,2 km/h (1 Bft) 93,62 %
25.10.2018 00:58 12,8 C 11,7 C 11,7 C 96 % 1021,0 hPa 0,0 l/m 0 min 0 min 0 W/m 0,0 km/h (0 Bft) 97,87 %
25.10.2018 01:00 12,8 C 11,7 C 11,7 C 96 % 1021,0 hPa 0,0 l/m 0 min 0 min 0 W/m 0,0 km/h (0 Bft) 97,87 %
25.10.2018 01:02 12,8 C 11,7 C 11,7 C 96 % 1020,9 hPa 0,0 l/m 0 min 0 min 0 W/m 0,0 km/h (0 Bft) 97,92 %
25.10.2018 01:04 12,8 C 11,7 C 11,7 C 97 % 1021,0 hPa 0,0 l/m 0 min 0 min 0 W/m 3,2 km/h (1 Bft) 97,87 %
25.10.2018 01:08 12,8 C 11,7 C 11,7 C 97 % 1020,9 hPa 0,0 l/m 0 min 0 min 0 W/m 3,2 km/h (1 Bft) 100,00 %
25.10.2018 01:10 12,8 C 11,7 C 11,7 C 97 % 1021,0 hPa 0,0 l/m 0 min 0 min 0 W/m 9,7 km/h (2 Bft) 100,00 %
25.10.2018 01:12 12,7 C 11,7 C 11,7 C 97 % 1021,0 hPa 0,0 l/m 0 min 0 min 0 W/m 6,4 km/h (2 Bft) 100,00 %
25.10.2018 01:14 12,7 C 11,7 C 11,7 C 97 % 1020,9 hPa 0,0 l/m 0 min 0 min 0 W/m 6,4 km/h (2 Bft) 97,83 %
25.10.2018 01:16 12,7 C 11,7 C 11,7 C 97 % 1020,9 hPa 0,0 l/m 0 min 0 min 0 W/m 6,4 km/h (2 Bft) 100,00 %
25.10.2018 01:18 12,7 C 11,7 C 11,7 C 97 % 1020,8 hPa 0,0 l/m 0 min 0 min 0 W/m 6,4 km/h (2 Bft) 100,00 %
25.10.2018 01:20 12,7 C 11,7 C 11,7 C 97 % 1020,8 hPa 0,0 l/m 0 min 0 min 0 W/m 9,7 km/h (2 Bft) 100,00 %
25.10.2018 01:22 12,7 C 11,7 C 11,7 C 97 % 1020,7 hPa 0,0 l/m 0 min 0 min 0 W/m 6,4 km/h (2 Bft) 100,00 %
25.10.2018 01:24 12,7 C 11,7 C 11,7 C 97 % 1020,8 hPa 0,0 l/m 0 min 0 min 0 W/m 6,4 km/h (2 Bft) 97,87 %
25.10.2018 01:26 12,7 C 11,7 C 11,7 C 97 % 1020,8 hPa 0,0 l/m 0 min 0 min 0 W/m 3,2 km/h (1 Bft) 100,00 %
25.10.2018 01:28 12,7 C 11,7 C 11,7 C 97 % 1020,7 hPa 0,0 l/m 0 min 0 min 0 W/m 3,2 km/h (1 Bft) 100,00 %
25.10.2018 01:30 12,7 C 11,7 C 11,7 C 97 % 1020,7 hPa 0,0 l/m 0 min 0 min 0 W/m 3,2 km/h (1 Bft) 100,00 %
25.10.2018 01:32 12,7 C 11,7 C 11,7 C 97 % 1020,7 hPa 0,0 l/m 0 min 0 min 0 W/m 3,2 km/h (1 Bft) 100,00 %
25.10.2018 01:34 12,6 C 11,7 C 11,1 C 97 % 1020,6 hPa 0,0 l/m 0 min 0 min 0 W/m 12,9 km/h (3 Bft) 95,74 %
25.10.2018 01:38 12,6 C 11,7 C 11,7 C 97 % 1020,5 hPa 0,0 l/m 0 min 0 min 0 W/m 3,2 km/h (1 Bft) 100,00 %
25.10.2018 01:40 12,6 C 11,7 C 11,1 C 97 % 1020,5 hPa 0,0 l/m 0 min 0 min 0 W/m 0,0 km/h (0 Bft) 100,00 %
25.10.2018 01:42 12,6 C 11,7 C 11,1 C 97 % 1020,5 hPa 0,0 l/m 0 min 0 min 0 W/m 0,0 km/h (0 Bft) 100,00 %
25.10.2018 01:44 12,6 C 11,7 C 11,1 C 97 % 1020,5 hPa 0,0 l/m 0 min 0 min 0 W/m 9,7 km/h (2 Bft) 100,00 %
25.10.2018 01:46 12,6 C 11,7 C 11,1 C 97 % 1020,4 hPa 0,0 l/m 0 min 0 min 0 W/m 3,2 km/h (1 Bft) 100,00 %
25.10.2018 01:48 12,6 C 11,7 C 11,1 C 97 % 1020,5 hPa 0,0 l/m 0 min 0 min 0 W/m 3,2 km/h (1 Bft) 100,00 %
25.10.2018 01:50 12,6 C 11,7 C 11,7 C 97 % 1020,4 hPa 0,0 l/m 0 min 0 min 0 W/m 9,7 km/h (2 Bft) 100,00 %
25.10.2018 01:52 12,6 C 11,7 C 11,7 C 97 % 1020,4 hPa 0,0 l/m 0 min 0 min 0 W/m 9,7 km/h (2 Bft) 100,00 %
25.10.2018 01:54 12,6 C 11,7 C 11,7 C 97 % 1020,4 hPa 0,0 l/m 0 min 0 min 0 W/m 0,0 km/h (0 Bft) 95,83 %
25.10.2018 01:56 12,6 C 11,7 C 11,7 C 97 % 1020,4 hPa 0,0 l/m 0 min 0 min 0 W/m 6,4 km/h (2 Bft) 100,00 %
25.10.2018 01:58 12,6 C 11,7 C 11,1 C 97 % 1020,4 hPa 0,0 l/m 0 min 0 min 0 W/m 6,4 km/h (2 Bft) 97,87 %
25.10.2018 02:00 12,6 C 11,7 C 11,7 C 97 % 1020,4 hPa 0,0 l/m 0 min 0 min 0 W/m 9,7 km/h (2 Bft) 97,83 %
25.10.2018 02:02 12,6 C 11,7 C 11,7 C 97 % 1020,3 hPa 0,0 l/m 0 min 0 min 0 W/m 0,0 km/h (0 Bft) 100,00 %
25.10.2018 02:04 12,6 C 11,7 C 11,7 C 97 % 1020,3 hPa 0,0 l/m 0 min 0 min 0 W/m 6,4 km/h (2 Bft) 100,00 %
25.10.2018 02:08 12,6 C 11,7 C 11,7 C 97 % 1020,3 hPa 0,0 l/m 0 min 0 min 0 W/m 6,4 km/h (2 Bft) 100,00 %
25.10.2018 02:10 12,6 C 11,7 C 11,7 C 97 % 1020,2 hPa 0,0 l/m 0 min 0 min 0 W/m 3,2 km/h (1 Bft) 97,87 %
25.10.2018 02:12 12,6 C 11,7 C 11,7 C 97 % 1020,2 hPa 0,0 l/m 0 min 0 min 0 W/m 6,4 km/h (2 Bft) 97,83 %
25.10.2018 02:14 12,6 C 11,7 C 11,7 C 97 % 1020,1 hPa 0,0 l/m 0 min 0 min 0 W/m 3,2 km/h (1 Bft) 100,00 %
25.10.2018 02:16 12,6 C 11,7 C 11,7 C 97 % 1020,2 hPa 0,0 l/m 0 min 0 min 0 W/m 6,4 km/h (2 Bft) 97,92 %
25.10.2018 02:18 12,6 C 11,7 C 11,7 C 97 % 1020,1 hPa 0,0 l/m 0 min 0 min 0 W/m 6,4 km/h (2 Bft) 97,87 %
25.10.2018 02:20 12,6 C 11,7 C 11,7 C 97 % 1020,0 hPa 0,0 l/m 0 min 0 min 0 W/m 6,4 km/h (2 Bft) 100,00 %
25.10.2018 02:22 12,6 C 11,7 C 11,7 C 97 % 1020,1 hPa 0,0 l/m 0 min 0 min 0 W/m 6,4 km/h (2 Bft) 97,87 %
25.10.2018 02:24 12,6 C 11,7 C 11,7 C 97 % 1020,0 hPa 0,0 l/m 0 min 0 min 0 W/m 9,7 km/h (2 Bft) 100,00 %
25.10.2018 02:26 12,6 C 11,7 C 11,7 C 97 % 1019,9 hPa 0,0 l/m 0 min 0 min 0 W/m 6,4 km/h (2 Bft) 100,00 %
25.10.2018 02:28 12,6 C 11,7 C 11,7 C 97 % 1020,0 hPa 0,0 l/m 0 min 0 min 0 W/m 6,4 km/h (2 Bft) 100,00 %
25.10.2018 02:30 12,6 C 11,7 C 11,7 C 97 % 1019,8 hPa 0,0 l/m 0 min 0 min 0 W/m 3,2 km/h (1 Bft) 97,87 %
25.10.2018 02:32 12,6 C 11,7 C 11,7 C 97 % 1019,8 hPa 0,0 l/m 0 min 0 min 0 W/m 3,2 km/h (1 Bft) 97,87 %
25.10.2018 02:34 12,6 C 11,7 C 11,7 C 97 % 1019,8 hPa 0,0 l/m 0 min 0 min 0 W/m 6,4 km/h (2 Bft) 97,87 %
25.10.2018 02:38 12,6 C 11,7 C 11,7 C 97 % 1019,7 hPa 0,0 l/m 0 min 0 min 0 W/m 9,7 km/h (2 Bft) 96,77 %
25.10.2018 02:40 12,6 C 11,7 C 11,7 C 97 % 1019,7 hPa 0,0 l/m 0 min 0 min 0 W/m 0,0 km/h (0 Bft) 95,74 %
25.10.2018 02:42 12,6 C 11,7 C 11,7 C 97 % 1019,7 hPa 0,0 l/m 0 min 0 min 0 W/m 3,2 km/h (1 Bft) 95,74 %
25.10.2018 02:44 12,6 C 11,7 C 11,7 C 97 % 1019,7 hPa 0,0 l/m 0 min 0 min 0 W/m 6,4 km/h (2 Bft) 93,62 %
25.10.2018 02:46 12,6 C 11,7 C 11,7 C 97 % 1019,7 hPa 0,0 l/m 0 min 0 min 0 W/m 6,4 km/h (2 Bft) 95,74 %
25.10.2018 02:48 12,6 C 11,7 C 11,7 C 97 % 1019,6 hPa 0,0 l/m 0 min 0 min 0 W/m 6,4 km/h (2 Bft) 95,65 %
25.10.2018 02:50 12,6 C 11,7 C 11,7 C 97 % 1019,6 hPa 0,0 l/m 0 min 0 min 0 W/m 6,4 km/h (2 Bft) 93,62 %
25.10.2018 02:52 12,6 C 11,7 C 11,7 C 97 % 1019,6 hPa 0,0 l/m 0 min 0 min 0 W/m 6,4 km/h (2 Bft) 95,74 %
25.10.2018 02:54 12,6 C 11,7 C 11,7 C 97 % 1019,6 hPa 0,0 l/m 0 min 0 min 0 W/m 3,2 km/h (1 Bft) 97,87 %
25.10.2018 02:56 12,6 C 11,7 C 11,7 C 97 % 1019,5 hPa 0,0 l/m 0 min 0 min 0 W/m 9,7 km/h (2 Bft) 97,87 %
25.10.2018 02:58 12,6 C 11,7 C 11,7 C 97 % 1019,4 hPa 0,0 l/m 0 min 0 min 0 W/m 6,4 km/h (2 Bft) 93,62 %
25.10.2018 03:00 12,6 C 11,7 C 11,7 C 97 % 1019,4 hPa 0,0 l/m 0 min 0 min 0 W/m 9,7 km/h (2 Bft) 95,65 %
25.10.2018 03:02 12,6 C 11,7 C 11,7 C 97 % 1019,4 hPa 0,0 l/m 0 min 0 min 0 W/m 6,4 km/h (2 Bft) 93,62 %
25.10.2018 03:04 12,6 C 11,7 C 11,7 C 97 % 1019,4 hPa 0,0 l/m 0 min 0 min 0 W/m 6,4 km/h (2 Bft) 97,87 %
25.10.2018 03:08 12,6 C 11,7 C 11,7 C 97 % 1019,4 hPa 0,0 l/m 0 min 0 min 0 W/m 16,1 km/h (3 Bft) 94,68 %
25.10.2018 03:10 12,6 C 11,7 C 11,7 C 98 % 1019,3 hPa 0,0 l/m 0 min 0 min 0 W/m 9,7 km/h (2 Bft) 93,62 %
25.10.2018 03:12 12,6 C 11,7 C 11,7 C 98 % 1019,3 hPa 0,0 l/m 0 min 0 min 0 W/m 3,2 km/h (1 Bft) 95,65 %
25.10.2018 03:14 12,6 C 11,7 C 11,7 C 98 % 1019,3 hPa 0,0 l/m 0 min 0 min 0 W/m 0,0 km/h (0 Bft) 95,74 %
25.10.2018 03:16 12,6 C 11,7 C 11,7 C 97 % 1019,4 hPa 0,0 l/m 0 min 0 min 0 W/m 6,4 km/h (2 Bft) 95,35 %
25.10.2018 03:18 12,6 C 11,7 C 11,7 C 97 % 1019,2 hPa 0,0 l/m 0 min 0 min 0 W/m 16,1 km/h (3 Bft) 95,74 %
25.10.2018 03:20 12,6 C 11,7 C 11,7 C 97 % 1019,2 hPa 0,0 l/m 0 min 0 min 0 W/m 6,4 km/h (2 Bft) 95,74 %
25.10.2018 03:22 12,6 C 11,7 C 11,7 C 97 % 1019,1 hPa 0,0 l/m 0 min 0 min 0 W/m 3,2 km/h (1 Bft) 95,74 %
25.10.2018 03:24 12,6 C 11,7 C 11,7 C 97 % 1019,1 hPa 0,0 l/m 0 min 0 min 0 W/m 3,2 km/h (1 Bft) 97,83 %
25.10.2018 03:26 12,6 C 11,7 C 11,7 C 97 % 1019,2 hPa 0,0 l/m 0 min 0 min 0 W/m 9,7 km/h (2 Bft) 97,87 %
25.10.2018 03:28 12,6 C 11,7 C 11,7 C 97 % 1019,0 hPa 0,0 l/m 0 min 0 min 0 W/m 0,0 km/h (0 Bft) 95,74 %
25.10.2018 03:30 12,6 C 11,7 C 11,7 C 97 % 1019,0 hPa 0,0 l/m 0 min 0 min 0 W/m 3,2 km/h (1 Bft) 97,87 %
25.10.2018 03:32 12,6 C 11,7 C 11,7 C 97 % 1019,0 hPa 0,0 l/m 0 min 0 min 0 W/m 6,4 km/h (2 Bft) 95,74 %
25.10.2018 03:34 12,6 C 11,7 C 11,7 C 97 % 1019,0 hPa 0,0 l/m 0 min 0 min 0 W/m 6,4 km/h (2 Bft) 97,87 %
25.10.2018 03:38 12,6 C 11,7 C 11,7 C 97 % 1018,8 hPa 0,0 l/m 0 min 0 min 0 W/m 6,4 km/h (2 Bft) 96,77 %
25.10.2018 03:40 12,6 C 11,7 C 11,7 C 97 % 1018,8 hPa 0,0 l/m 0 min 0 min 0 W/m 3,2 km/h (1 Bft) 97,87 %
25.10.2018 03:42 12,5 C 11,7 C 11,7 C 97 % 1018,8 hPa 0,0 l/m 0 min 0 min 0 W/m 0,0 km/h (0 Bft) 97,87 %
25.10.2018 03:44 12,5 C 11,7 C 11,7 C 97 % 1018,8 hPa 0,0 l/m 0 min 0 min 0 W/m 6,4 km/h (2 Bft) 97,87 %
25.10.2018 03:46 12,5 C 11,7 C 11,7 C 97 % 1018,7 hPa 0,0 l/m 0 min 0 min 0 W/m 3,2 km/h (1 Bft) 97,92 %
25.10.2018 03:48 12,5 C 11,7 C 11,7 C 97 % 1018,7 hPa 0,0 l/m 0 min 0 min 0 W/m 3,2 km/h (1 Bft) 95,74 %
25.10.2018 03:50 12,5 C 11,7 C 11,7 C 97 % 1018,7 hPa 0,0 l/m 0 min 0 min 0 W/m 6,4 km/h (2 Bft) 97,87 %
25.10.2018 03:52 12,5 C 11,7 C 11,7 C 97 % 1018,6 hPa 0,0 l/m 0 min 0 min 0 W/m 3,2 km/h (1 Bft) 95,92 %
25.10.2018 03:54 12,5 C 11,7 C 11,7 C 97 % 1018,5 hPa 0,0 l/m 0 min 0 min 0 W/m 6,4 km/h (2 Bft) 97,87 %
25.10.2018 03:56 12,5 C 11,7 C 11,7 C 97 % 1018,6 hPa 0,0 l/m 0 min 0 min 0 W/m 3,2 km/h (1 Bft) 95,74 %
25.10.2018 03:58 12,4 C 11,7 C 11,7 C 98 % 1018,6 hPa 0,0 l/m 0 min 0 min 0 W/m 3,2 km/h (1 Bft) 97,83 %
25.10.2018 04:00 12,4 C 11,7 C 11,7 C 98 % 1018,6 hPa 0,0 l/m 0 min 0 min 0 W/m 6,4 km/h (2 Bft) 97,87 %
25.10.2018 04:02 12,4 C 11,7 C 11,7 C 98 % 1018,5 hPa 0,0 l/m 0 min 0 min 0 W/m 3,2 km/h (1 Bft) 100,00 %
25.10.2018 04:04 12,4 C 11,7 C 11,7 C 98 % 1018,5 hPa 0,0 l/m 0 min 0 min 0 W/m 9,7 km/h (2 Bft) 100,00 %
25.10.2018 04:08 12,4 C 11,7 C 11,7 C 98 % 1018,5 hPa 0,0 l/m 0 min 0 min 0 W/m 6,4 km/h (2 Bft) 98,94 %
25.10.2018 04:10 12,4 C 11,7 C 11,7 C 98 % 1018,4 hPa 0,0 l/m 0 min 0 min 0 W/m 6,4 km/h (2 Bft) 97,87 %
25.10.2018 04:12 12,4 C 11,7 C 11,7 C 98 % 1018,4 hPa 0,0 l/m 0 min 0 min 0 W/m 3,2 km/h (1 Bft) 97,83 %
25.10.2018 04:14 12,4 C 11,7 C 11,7 C 98 % 1018,4 hPa 0,0 l/m 0 min 0 min 0 W/m 3,2 km/h (1 Bft) 100,00 %
25.10.2018 04:16 12,4 C 11,7 C 11,7 C 98 % 1018,4 hPa 0,0 l/m 0 min 0 min 0 W/m 6,4 km/h (2 Bft) 97,87 %
25.10.2018 04:18 12,4 C 11,7 C 11,7 C 98 % 1018,4 hPa 0,0 l/m 0 min 0 min 0 W/m 6,4 km/h (2 Bft) 97,87 %
25.10.2018 04:20 12,4 C 11,7 C 11,7 C 98 % 1018,4 hPa 0,0 l/m 0 min 0 min 0 W/m 3,2 km/h (1 Bft) 96,61 %
25.10.2018 04:22 12,4 C 11,7 C 11,7 C 98 % 1018,3 hPa 0,0 l/m 0 min 0 min 0 W/m 9,7 km/h (2 Bft) 97,22 %
25.10.2018 04:24 12,4 C 11,7 C 11,7 C 98 % 1018,3 hPa 0,0 l/m 0 min 0 min 0 W/m 6,4 km/h (2 Bft) 97,83 %
25.10.2018 04:26 12,4 C 11,7 C 11,7 C 98 % 1018,3 hPa 0,0 l/m 0 min 0 min 0 W/m 6,4 km/h (2 Bft) 95,74 %
25.10.2018 04:28 12,4 C 11,7 C 11,7 C 98 % 1018,2 hPa 0,0 l/m 0 min 0 min 0 W/m 6,4 km/h (2 Bft) 95,74 %
25.10.2018 04:30 12,4 C 11,7 C 11,7 C 98 % 1018,1 hPa 0,0 l/m 0 min 0 min 0 W/m 3,2 km/h (1 Bft) 97,87 %
25.10.2018 04:32 12,4 C 11,7 C 11,7 C 98 % 1018,2 hPa 0,0 l/m 0 min 0 min 0 W/m 6,4 km/h (2 Bft) 97,87 %
25.10.2018 04:34 12,4 C 11,7 C 11,7 C 98 % 1018,2 hPa 0,0 l/m 0 min 0 min 0 W/m 3,2 km/h (1 Bft) 100,00 %
25.10.2018 04:38 12,4 C 11,7 C 11,7 C 98 % 1018,2 hPa 0,0 l/m 0 min 0 min 0 W/m 3,2 km/h (1 Bft) 97,87 %
25.10.2018 04:40 12,4 C 11,7 C 11,7 C 98 % 1018,2 hPa 0,0 l/m 0 min 0 min 0 W/m 3,2 km/h (1 Bft) 95,74 %
25.10.2018 04:42 12,4 C 11,7 C 11,7 C 98 % 1018,1 hPa 0,0 l/m 0 min 0 min 0 W/m 3,2 km/h (1 Bft) 97,87 %
25.10.2018 04:44 12,4 C 11,7 C 11,7 C 98 % 1018,0 hPa 0,0 l/m 0 min 0 min 0 W/m 9,7 km/h (2 Bft) 93,62 %
25.10.2018 04:46 12,4 C 11,7 C 11,7 C 98 % 1018,0 hPa 0,0 l/m 0 min 0 min 0 W/m 9,7 km/h (2 Bft) 97,87 %
25.10.2018 04:48 12,4 C 11,7 C 11,7 C 98 % 1018,0 hPa 0,0 l/m 0 min 0 min 0 W/m 6,4 km/h (2 Bft) 97,83 %
25.10.2018 04:50 12,4 C 11,7 C 11,7 C 98 % 1018,1 hPa 0,0 l/m 0 min 0 min 0 W/m 3,2 km/h (1 Bft) 97,87 %
25.10.2018 04:52 12,4 C 11,7 C 11,7 C 98 % 1018,2 hPa 0,0 l/m 0 min 0 min 0 W/m 0,0 km/h (0 Bft) 97,87 %
25.10.2018 04:54 12,4 C 11,7 C 11,7 C 98 % 1018,2 hPa 0,0 l/m 0 min 0 min 0 W/m 0,0 km/h (0 Bft) 100,00 %
25.10.2018 04:56 12,4 C 11,7 C 11,7 C 98 % 1018,2 hPa 0,0 l/m 0 min 0 min 0 W/m 0,0 km/h (0 Bft) 100,00 %
25.10.2018 04:58 12,4 C 11,7 C 11,1 C 98 % 1018,3 hPa 0,0 l/m 0 min 0 min 0 W/m 0,0 km/h (0 Bft) 97,83 %
25.10.2018 05:00 12,4 C 11,7 C 11,1 C 98 % 1018,2 hPa 0,0 l/m 0 min 0 min 0 W/m 0,0 km/h (0 Bft) 100,00 %
25.10.2018 05:02 12,4 C 11,7 C 11,1 C 98 % 1018,2 hPa 0,0 l/m 0 min 0 min 0 W/m 0,0 km/h (0 Bft) 100,00 %
25.10.2018 05:04 12,4 C 11,7 C 11,7 C 98 % 1018,1 hPa 0,0 l/m 0 min 0 min 0 W/m 0,0 km/h (0 Bft) 100,00 %
25.10.2018 05:05 12,4 C 11,7 C 11,7 C 98 % 1018,1 hPa 0,0 l/m 0 min 0 min 0 W/m 0,0 km/h (0 Bft) 100,00 %
25.10.2018 05:10 12,4 C 11,7 C 11,7 C 98 % 1018,1 hPa 0,0 l/m 0 min 0 min 0 W/m 0,0 km/h (0 Bft) 100,00 %
25.10.2018 05:12 12,4 C 11,7 C 11,7 C 98 % 1018,0 hPa 0,0 l/m 0 min 0 min 0 W/m 0,0 km/h (0 Bft) 100,00 %
25.10.2018 05:17 12,4 C 11,7 C 11,7 C 98 % 1018,0 hPa 0,0 l/m 0 min 0 min 0 W/m 0,0 km/h (0 Bft) 93,75 %
25.10.2018 05:18 12,4 C 11,7 C 11,7 C 98 % 1018,0 hPa 0,0 l/m 0 min 0 min 0 W/m 0,0 km/h (0 Bft) 100,00 %
25.10.2018 05:20 12,4 C 11,7 C 11,7 C 98 % 1017,8 hPa 0,0 l/m 0 min 0 min 0 W/m 0,0 km/h (0 Bft) 97,87 %
25.10.2018 05:22 12,4 C 11,7 C 11,7 C 98 % 1017,8 hPa 0,0 l/m 0 min 0 min 0 W/m 0,0 km/h (0 Bft) 97,87 %
25.10.2018 05:24 12,4 C 11,7 C 11,7 C 98 % 1017,8 hPa 0,0 l/m 0 min 0 min 0 W/m 0,0 km/h (0 Bft) 95,74 %
25.10.2018 05:26 12,4 C 11,7 C 11,7 C 98 % 1017,7 hPa 0,0 l/m 0 min 0 min 0 W/m 3,2 km/h (1 Bft) 95,65 %
25.10.2018 05:28 12,4 C 11,7 C 11,7 C 98 % 1017,7 hPa 0,0 l/m 0 min 0 min 0 W/m 0,0 km/h (0 Bft) 97,87 %
25.10.2018 05:30 12,4 C 11,7 C 11,7 C 98 % 1017,7 hPa 0,0 l/m 0 min 0 min 0 W/m 3,2 km/h (1 Bft) 97,87 %
25.10.2018 05:32 12,4 C 11,7 C 11,7 C 98 % 1017,7 hPa 0,0 l/m 0 min 0 min 0 W/m 6,4 km/h (2 Bft) 97,92 %
25.10.2018 05:34 12,4 C 11,7 C 11,7 C 98 % 1017,7 hPa 0,0 l/m 0 min 0 min 0 W/m 9,7 km/h (2 Bft) 97,87 %
25.10.2018 05:38 12,4 C 11,7 C 11,7 C 98 % 1017,7 hPa 0,0 l/m 0 min 0 min 0 W/m 3,2 km/h (1 Bft) 95,70 %
25.10.2018 05:40 12,4 C 11,7 C 11,7 C 98 % 1017,6 hPa 0,0 l/m 0 min 0 min 0 W/m 0,0 km/h (0 Bft) 97,87 %
25.10.2018 05:42 12,4 C 11,7 C 11,7 C 98 % 1017,6 hPa 0,0 l/m 0 min 0 min 0 W/m 3,2 km/h (1 Bft) 95,74 %
25.10.2018 05:44 12,4 C 11,7 C 11,7 C 98 % 1017,6 hPa 0,0 l/m 0 min 0 min 0 W/m 3,2 km/h (1 Bft) 95,74 %
25.10.2018 05:46 12,4 C 11,7 C 11,7 C 98 % 1017,5 hPa 0,0 l/m 0 min 0 min 0 W/m 12,9 km/h (3 Bft) 93,75 %
25.10.2018 05:48 12,4 C 11,7 C 11,7 C 98 % 1017,5 hPa 0,0 l/m 0 min 0 min 0 W/m 3,2 km/h (1 Bft) 95,65 %
25.10.2018 05:50 12,4 C 11,7 C 11,7 C 98 % 1017,6 hPa 0,0 l/m 0 min 0 min 0 W/m 9,7 km/h (2 Bft) 93,62 %
25.10.2018 05:52 12,4 C 11,7 C 11,7 C 98 % 1017,7 hPa 0,0 l/m 0 min 0 min 0 W/m 6,4 km/h (2 Bft) 95,74 %
25.10.2018 05:54 12,4 C 11,7 C 11,7 C 98 % 1017,6 hPa 0,0 l/m 0 min 0 min 0 W/m 3,2 km/h (1 Bft) 93,62 %
25.10.2018 05:56 12,4 C 11,7 C 11,7 C 98 % 1017,7 hPa 0,0 l/m 0 min 0 min 0 W/m 12,9 km/h (3 Bft) 95,74 %
25.10.2018 05:58 12,4 C 11,7 C 11,7 C 98 % 1017,7 hPa 0,0 l/m 0 min 0 min 0 W/m 9,7 km/h (2 Bft) 95,74 %
25.10.2018 06:00 12,4 C 11,7 C 11,7 C 98 % 1017,6 hPa 0,0 l/m 0 min 0 min 0 W/m 6,4 km/h (2 Bft) 95,65 %
25.10.2018 06:02 12,4 C 11,7 C 11,7 C 98 % 1017,5 hPa 0,0 l/m 0 min 0 min 0 W/m 6,4 km/h (2 Bft) 95,83 %
25.10.2018 06:04 12,4 C 11,7 C 11,7 C 98 % 1017,6 hPa 0,0 l/m 0 min 0 min 0 W/m 6,4 km/h (2 Bft) 95,74 %
25.10.2018 06:07 12,4 C 11,7 C 11,7 C 98 % 1017,5 hPa 0,0 l/m 0 min 0 min 0 W/m 6,4 km/h (2 Bft) 95,74 %
25.10.2018 06:08 12,4 C 11,7 C 11,7 C 98 % 1017,5 hPa 0,0 l/m 0 min 0 min 0 W/m 6,4 km/h (2 Bft) 96,77 %
25.10.2018 06:10 12,4 C 11,7 C 11,7 C 98 % 1017,5 hPa 0,0 l/m 0 min 0 min 0 W/m 3,2 km/h (1 Bft) 95,74 %
25.10.2018 06:12 12,4 C 11,7 C 11,7 C 98 % 1017,5 hPa 0,0 l/m 0 min 0 min 0 W/m 6,4 km/h (2 Bft) 97,87 %
25.10.2018 06:14 12,4 C 11,7 C 11,7 C 98 % 1017,5 hPa 0,0 l/m 0 min 0 min 0 W/m 6,4 km/h (2 Bft) 95,74 %
25.10.2018 06:16 12,4 C 11,7 C 11,7 C 98 % 1017,5 hPa 0,0 l/m 0 min 0 min 0 W/m 6,4 km/h (2 Bft) 97,14 %
25.10.2018 06:18 12,4 C 11,7 C 11,7 C 98 % 1017,5 hPa 0,0 l/m 0 min 0 min 0 W/m 6,4 km/h (2 Bft) 93,10 %
25.10.2018 06:20 12,4 C 11,7 C 11,7 C 98 % 1017,5 hPa 0,0 l/m 0 min 0 min 0 W/m 3,2 km/h (1 Bft) 97,87 %
25.10.2018 06:22 12,4 C 11,7 C 11,7 C 98 % 1017,5 hPa 0,0 l/m 0 min 0 min 0 W/m 3,2 km/h (1 Bft) 97,87 %
25.10.2018 06:24 12,4 C 11,7 C 11,7 C 98 % 1017,5 hPa 0,0 l/m 0 min 0 min 0 W/m 3,2 km/h (1 Bft) 97,87 %
25.10.2018 06:26 12,4 C 11,7 C 11,7 C 98 % 1017,5 hPa 0,0 l/m 0 min 0 min 0 W/m 9,7 km/h (2 Bft) 97,87 %
25.10.2018 06:28 12,4 C 11,7 C 11,7 C 98 % 1017,5 hPa 0,0 l/m 0 min 0 min 0 W/m 9,7 km/h (2 Bft) 95,74 %
25.10.2018 06:30 12,4 C 11,7 C 11,7 C 98 % 1017,5 hPa 0,0 l/m 0 min 0 min 0 W/m 9,7 km/h (2 Bft) 100,00 %
25.10.2018 06:32 12,4 C 11,7 C 11,7 C 98 % 1017,5 hPa 0,0 l/m 0 min 0 min 0 W/m 6,4 km/h (2 Bft) 100,00 %
25.10.2018 06:34 12,4 C 11,7 C 11,7 C 98 % 1017,5 hPa 0,0 l/m 0 min 0 min 0 W/m 6,4 km/h (2 Bft) 97,87 %
25.10.2018 06:38 12,4 C 11,7 C 11,7 C 98 % 1017,5 hPa 0,0 l/m 0 min 0 min 0 W/m 9,7 km/h (2 Bft) 100,00 %
25.10.2018 06:40 12,4 C 11,7 C 11,7 C 98 % 1017,4 hPa 0,0 l/m 0 min 0 min 0 W/m 9,7 km/h (2 Bft) 100,00 %
25.10.2018 06:42 12,4 C 11,7 C 11,7 C 98 % 1017,5 hPa 0,0 l/m 0 min 0 min 0 W/m 3,2 km/h (1 Bft) 100,00 %
25.10.2018 06:44 12,4 C 11,7 C 11,7 C 98 % 1017,4 hPa 0,0 l/m 0 min 0 min 0 W/m 3,2 km/h (1 Bft) 100,00 %
25.10.2018 06:46 12,4 C 11,7 C 11,7 C 98 % 1017,4 hPa 0,0 l/m 0 min 0 min 0 W/m 3,2 km/h (1 Bft) 100,00 %
25.10.2018 06:48 12,5 C 11,7 C 11,7 C 98 % 1017,4 hPa 0,0 l/m 0 min 0 min 0 W/m 6,4 km/h (2 Bft) 100,00 %
25.10.2018 06:50 12,4 C 11,7 C 11,7 C 98 % 1017,4 hPa 0,0 l/m 0 min 0 min 0 W/m 3,2 km/h (1 Bft) 100,00 %
25.10.2018 06:52 12,5 C 11,7 C 11,7 C 98 % 1017,2 hPa 0,0 l/m 0 min 0 min 0 W/m 3,2 km/h (1 Bft) 97,87 %
25.10.2018 06:54 12,4 C 11,7 C 11,7 C 98 % 1017,3 hPa 0,0 l/m 0 min 0 min 0 W/m 9,7 km/h (2 Bft) 100,00 %
25.10.2018 06:56 12,4 C 11,7 C 11,7 C 98 % 1017,2 hPa 0,0 l/m 0 min 0 min 0 W/m 6,4 km/h (2 Bft) 100,00 %
25.10.2018 06:58 12,5 C 11,7 C 11,7 C 98 % 1017,3 hPa 0,0 l/m 0 min 0 min 0 W/m 6,4 km/h (2 Bft) 100,00 %
25.10.2018 07:00 12,4 C 11,7 C 11,7 C 97 % 1017,2 hPa 0,0 l/m 0 min 0 min 0 W/m 6,4 km/h (2 Bft) 100,00 %
25.10.2018 07:02 12,4 C 11,7 C 11,7 C 97 % 1017,2 hPa 0,0 l/m 0 min 0 min 0 W/m 3,2 km/h (1 Bft) 97,87 %
25.10.2018 07:04 12,4 C 11,7 C 11,7 C 97 % 1017,4 hPa 0,0 l/m 0 min 0 min 0 W/m 9,7 km/h (2 Bft) 100,00 %
25.10.2018 07:08 12,4 C 11,7 C 11,7 C 97 % 1017,3 hPa 0,0 l/m 0 min 0 min 0 W/m 3,2 km/h (1 Bft) 100,00 %
25.10.2018 07:10 12,4 C 11,7 C 11,7 C 97 % 1017,3 hPa 0,0 l/m 0 min 0 min 0 W/m 6,4 km/h (2 Bft) 100,00 %
25.10.2018 07:12 12,4 C 11,7 C 11,7 C 97 % 1017,4 hPa 0,0 l/m 0 min 0 min 0 W/m 6,4 km/h (2 Bft) 100,00 %
25.10.2018 07:14 12,4 C 11,7 C 11,7 C 97 % 1017,4 hPa 0,0 l/m 0 min 0 min 0 W/m 3,2 km/h (1 Bft) 100,00 %
25.10.2018 07:16 12,4 C 11,7 C 11,7 C 97 % 1017,3 hPa 0,0 l/m 0 min 0 min 0 W/m 3,2 km/h (1 Bft) 97,87 %
25.10.2018 07:18 12,4 C 11,7 C 11,7 C 97 % 1017,3 hPa 0,0 l/m 0 min 0 min 0 W/m 3,2 km/h (1 Bft) 100,00 %
25.10.2018 07:20 12,4 C 11,7 C 11,7 C 97 % 1017,2 hPa 0,0 l/m 0 min 0 min 0 W/m 0,0 km/h (0 Bft) 100,00 %
25.10.2018 07:22 12,4 C 11,7 C 11,7 C 97 % 1017,2 hPa 0,0 l/m 0 min 0 min 0 W/m 0,0 km/h (0 Bft) 100,00 %
25.10.2018 07:24 12,4 C 11,7 C 11,7 C 97 % 1017,1 hPa 0,0 l/m 0 min 0 min 0 W/m 0,0 km/h (0 Bft) 100,00 %
25.10.2018 07:26 12,4 C 11,7 C 11,7 C 97 % 1017,1 hPa 0,0 l/m 0 min 0 min 0 W/m 3,2 km/h (1 Bft) 100,00 %
25.10.2018 07:28 12,4 C 11,7 C 11,7 C 97 % 1017,1 hPa 0,0 l/m 0 min 0 min 0 W/m 0,0 km/h (0 Bft) 100,00 %
25.10.2018 07:30 12,4 C 11,7 C 11,7 C 97 % 1017,1 hPa 0,0 l/m 0 min 0 min 0 W/m 3,2 km/h (1 Bft) 97,83 %
25.10.2018 07:32 12,4 C 11,7 C 11,7 C 97 % 1017,0 hPa 0,0 l/m 0 min 0 min 0 W/m 3,2 km/h (1 Bft) 100,00 %
25.10.2018 07:34 12,4 C 11,7 C 11,7 C 97 % 1017,0 hPa 0,0 l/m 0 min 0 min 0 W/m 6,4 km/h (2 Bft) 97,87 %
25.10.2018 07:38 12,4 C 11,7 C 11,7 C 97 % 1017,2 hPa 0,0 l/m 0 min 0 min 0 W/m 16,1 km/h (3 Bft) 95,88 %
25.10.2018 07:40 12,4 C 11,7 C 11,7 C 97 % 1017,1 hPa 0,0 l/m 0 min 0 min 0 W/m 6,4 km/h (2 Bft) 97,87 %
25.10.2018 07:42 12,4 C 11,7 C 11,7 C 97 % 1017,1 hPa 0,0 l/m 0 min 0 min 0 W/m 3,2 km/h (1 Bft) 95,65 %
25.10.2018 07:44 12,4 C 11,7 C 11,1 C 97 % 1017,3 hPa 0,0 l/m 0 min 2 min 0 W/m 9,7 km/h (2 Bft) 97,87 %
25.10.2018 07:46 12,4 C 11,7 C 11,1 C 97 % 1017,2 hPa 0,0 l/m 0 min 0 min 0 W/m 9,7 km/h (2 Bft) 97,67 %
25.10.2018 07:48 12,4 C 11,1 C 11,1 C 97 % 1017,2 hPa 0,0 l/m 0 min 0 min 0 W/m 25,7 km/h (4 Bft) 97,83 %
25.10.2018 07:50 12,3 C 11,1 C 11,1 C 97 % 1017,3 hPa 0,0 l/m 0 min 0 min 0 W/m 19,3 km/h (3 Bft) 95,74 %
25.10.2018 07:52 12,2 C 11,1 C 11,1 C 97 % 1017,2 hPa 0,0 l/m 0 min 0 min 0 W/m 19,3 km/h (3 Bft) 97,87 %
25.10.2018 07:54 12,2 C 11,1 C 11,1 C 97 % 1017,3 hPa 0,0 l/m 0 min 0 min 0 W/m 16,1 km/h (3 Bft) 97,87 %
25.10.2018 07:56 12,1 C 11,1 C 11,1 C 97 % 1017,2 hPa 0,0 l/m 0 min 0 min 0 W/m 19,3 km/h (3 Bft) 97,87 %
25.10.2018 07:58 12,1 C 11,1 C 11,1 C 97 % 1017,2 hPa 0,0 l/m 0 min 0 min 0 W/m 12,9 km/h (3 Bft) 97,83 %
25.10.2018 08:00 12,1 C 11,1 C 11,1 C 96 % 1017,2 hPa 0,0 l/m 0 min 0 min 0 W/m 12,9 km/h (3 Bft) 97,87 %
25.10.2018 08:02 12,0 C 11,1 C 11,1 C 96 % 1017,3 hPa 0,0 l/m 0 min 0 min 0 W/m 12,9 km/h (3 Bft) 97,87 %
25.10.2018 08:04 11,9 C 11,1 C 11,1 C 96 % 1017,3 hPa 0,0 l/m 0 min 0 min 0 W/m 9,7 km/h (2 Bft) 98,00 %
25.10.2018 08:06 11,9 C 11,1 C 11,1 C 96 % 1017,2 hPa 0,0 l/m 0 min 0 min 0 W/m 6,4 km/h (2 Bft) 100,00 %
25.10.2018 08:10 11,9 C 11,1 C 10,6 C 96 % 1017,1 hPa 0,0 l/m 0 min 0 min 0 W/m 6,4 km/h (2 Bft) 98,25 %
25.10.2018 08:14 11,9 C 11,1 C 10,6 C 95 % 1017,3 hPa 0,0 l/m 0 min 0 min 0 W/m 3,2 km/h (1 Bft) 95,24 %
25.10.2018 08:16 11,9 C 11,1 C 10,6 C 95 % 1017,3 hPa 0,0 l/m 0 min 0 min 0 W/m 16,1 km/h (3 Bft) 95,08 %
25.10.2018 08:18 11,9 C 11,1 C 10,6 C 95 % 1017,4 hPa 0,0 l/m 0 min 0 min 0 W/m 12,9 km/h (3 Bft) 97,87 %
25.10.2018 08:26 11,8 C 11,1 C 10,6 C 94 % 1017,5 hPa 0,0 l/m 0 min 0 min 5 W/m 25,7 km/h (4 Bft) 96,49 %
25.10.2018 08:28 11,8 C 11,1 C 10,6 C 94 % 1017,6 hPa 0,0 l/m 0 min 0 min 5 W/m 19,3 km/h (3 Bft) 93,62 %
25.10.2018 08:30 11,7 C 11,1 C 10,6 C 94 % 1017,6 hPa 0,0 l/m 0 min 0 min 7 W/m 25,7 km/h (4 Bft) 93,62 %
25.10.2018 08:32 11,7 C 11,1 C 10,6 C 93 % 1017,6 hPa 0,0 l/m 0 min 0 min 7 W/m 22,5 km/h (4 Bft) 93,62 %
25.10.2018 08:34 11,7 C 11,1 C 10,6 C 93 % 1017,6 hPa 0,0 l/m 0 min 0 min 7 W/m 16,1 km/h (3 Bft) 93,75 %
25.10.2018 08:38 11,7 C 11,1 C 10,6 C 92 % 1017,7 hPa 0,0 l/m 0 min 0 min 7 W/m 16,1 km/h (3 Bft) 94,62 %
25.10.2018 08:40 11,7 C 11,1 C 10,6 C 92 % 1017,6 hPa 0,0 l/m 0 min 0 min 7 W/m 12,9 km/h (3 Bft) 91,49 %
25.10.2018 08:42 11,7 C 11,1 C 10,6 C 92 % 1017,8 hPa 0,0 l/m 0 min 0 min 9 W/m 9,7 km/h (2 Bft) 93,62 %
25.10.2018 08:44 11,7 C 11,1 C 10,6 C 92 % 1017,8 hPa 0,0 l/m 0 min 0 min 9 W/m 19,3 km/h (3 Bft) 95,74 %
25.10.2018 08:46 11,6 C 11,1 C 10,6 C 91 % 1017,8 hPa 0,0 l/m 0 min 0 min 10 W/m 19,3 km/h (3 Bft) 95,74 %
25.10.2018 08:48 11,6 C 11,1 C 10,6 C 91 % 1017,7 hPa 0,0 l/m 0 min 0 min 11 W/m 19,3 km/h (3 Bft) 93,62 %
25.10.2018 08:50 11,6 C 11,1 C 10,6 C 90 % 1017,7 hPa 0,0 l/m 0 min 0 min 12 W/m 22,5 km/h (4 Bft) 93,48 %
25.10.2018 08:52 11,6 C 11,1 C 10,6 C 90 % 1017,7 hPa 0,0 l/m 0 min 0 min 12 W/m 9,7 km/h (2 Bft) 93,62 %
25.10.2018 08:54 11,6 C 11,1 C 10,6 C 90 % 1017,8 hPa 0,0 l/m 0 min 0 min 14 W/m 12,9 km/h (3 Bft) 95,74 %
25.10.2018 08:56 11,6 C 11,1 C 10,6 C 90 % 1017,7 hPa 0,0 l/m 0 min 0 min 15 W/m 16,1 km/h (3 Bft) 93,62 %
25.10.2018 08:58 11,6 C 11,1 C 10,6 C 90 % 1017,8 hPa 0,0 l/m 0 min 0 min 17 W/m 12,9 km/h (3 Bft) 95,74 %
25.10.2018 09:00 11,6 C 11,1 C 10,6 C 89 % 1017,8 hPa 0,0 l/m 0 min 0 min 18 W/m 22,5 km/h (4 Bft) 93,62 %
25.10.2018 09:02 11,6 C 11,1 C 10,6 C 89 % 1017,9 hPa 0,0 l/m 0 min 0 min 18 W/m 25,7 km/h (4 Bft) 97,22 %
25.10.2018 09:04 11,6 C 11,1 C 10,6 C 89 % 1017,8 hPa 0,0 l/m 0 min 0 min 18 W/m 19,3 km/h (3 Bft) 93,62 %
25.10.2018 09:08 11,6 C 11,1 C 11,1 C 88 % 1017,9 hPa 0,0 l/m 0 min 0 min 16 W/m 22,5 km/h (4 Bft) 96,81 %
25.10.2018 09:10 11,6 C 11,1 C 11,1 C 88 % 1017,9 hPa 0,0 l/m 0 min 0 min 13 W/m 22,5 km/h (4 Bft) 95,65 %
25.10.2018 09:12 11,6 C 11,1 C 11,1 C 88 % 1017,8 hPa 0,0 l/m 0 min 0 min 13 W/m 16,1 km/h (3 Bft) 95,74 %
25.10.2018 09:14 11,6 C 11,1 C 11,1 C 87 % 1017,9 hPa 0,0 l/m 0 min 0 min 13 W/m 22,5 km/h (4 Bft) 100,00 %
25.10.2018 09:16 11,6 C 11,1 C 11,1 C 87 % 1017,9 hPa 0,0 l/m 0 min 0 min 13 W/m 16,1 km/h (3 Bft) 100,00 %
25.10.2018 09:18 11,6 C 11,1 C 11,1 C 87 % 1017,9 hPa 0,0 l/m 0 min 0 min 14 W/m 9,7 km/h (2 Bft) 97,87 %
25.10.2018 09:20 11,6 C 11,1 C 11,1 C 87 % 1018,0 hPa 0,0 l/m 0 min 0 min 16 W/m 12,9 km/h (3 Bft) 100,00 %
25.10.2018 09:22 11,6 C 11,7 C 11,1 C 87 % 1017,8 hPa 0,0 l/m 0 min 0 min 16 W/m 19,3 km/h (3 Bft) 100,00 %
25.10.2018 09:24 11,7 C 11,7 C 11,1 C 87 % 1017,9 hPa 0,0 l/m 0 min 0 min 17 W/m 6,4 km/h (2 Bft) 97,87 %
25.10.2018 09:26 11,7 C 11,7 C 11,1 C 87 % 1017,8 hPa 0,0 l/m 0 min 0 min 18 W/m 9,7 km/h (2 Bft) 100,00 %
25.10.2018 09:28 11,7 C 11,7 C 11,1 C 87 % 1017,8 hPa 0,0 l/m 0 min 0 min 19 W/m 9,7 km/h (2 Bft) 100,00 %
25.10.2018 09:30 11,7 C 11,7 C 11,1 C 86 % 1017,8 hPa 0,0 l/m 0 min 0 min 19 W/m 6,4 km/h (2 Bft) 100,00 %
25.10.2018 09:32 11,7 C 11,7 C 11,1 C 86 % 1017,8 hPa 0,0 l/m 0 min 0 min 21 W/m 9,7 km/h (2 Bft) 100,00 %
25.10.2018 09:34 11,7 C 11,7 C 11,1 C 86 % 1017,8 hPa 0,0 l/m 0 min 0 min 27 W/m 6,4 km/h (2 Bft) 100,00 %
25.10.2018 09:38 11,8 C 11,7 C 11,1 C 86 % 1017,8 hPa 0,0 l/m 0 min 0 min 29 W/m 12,9 km/h (3 Bft) 100,00 %
25.10.2018 09:40 11,8 C 11,7 C 11,1 C 86 % 1017,8 hPa 0,0 l/m 0 min 0 min 28 W/m 6,4 km/h (2 Bft) 100,00 %
25.10.2018 09:42 11,8 C 11,7 C 11,1 C 86 % 1017,8 hPa 0,0 l/m 0 min 0 min 27 W/m 6,4 km/h (2 Bft) 100,00 %
25.10.2018 09:44 11,8 C 11,7 C 11,1 C 86 % 1017,9 hPa 0,0 l/m 0 min 0 min 26 W/m 6,4 km/h (2 Bft) 100,00 %
25.10.2018 09:46 11,8 C 11,7 C 11,1 C 86 % 1017,8 hPa 0,0 l/m 0 min 0 min 28 W/m 6,4 km/h (2 Bft) 100,00 %
25.10.2018 09:48 11,8 C 11,7 C 11,1 C 86 % 1017,9 hPa 0,0 l/m 0 min 0 min 30 W/m 9,7 km/h (2 Bft) 100,00 %
25.10.2018 09:50 11,9 C 11,7 C 11,1 C 86 % 1017,8 hPa 0,0 l/m 0 min 0 min 33 W/m 6,4 km/h (2 Bft) 100,00 %
25.10.2018 09:52 11,9 C 11,7 C 11,1 C 86 % 1017,9 hPa 0,0 l/m 0 min 0 min 37 W/m 9,7 km/h (2 Bft) 100,00 %
25.10.2018 09:54 11,9 C 11,7 C 11,1 C 86 % 1017,9 hPa 0,0 l/m 0 min 0 min 42 W/m 6,4 km/h (2 Bft) 97,87 %
25.10.2018 09:56 11,9 C 11,7 C 11,1 C 86 % 1017,8 hPa 0,0 l/m 0 min 0 min 51 W/m 12,9 km/h (3 Bft) 100,00 %
25.10.2018 09:58 11,9 C 11,7 C 11,1 C 85 % 1017,8 hPa 0,0 l/m 0 min 0 min 52 W/m 9,7 km/h (2 Bft) 100,00 %
25.10.2018 10:00 11,9 C 11,7 C 11,1 C 85 % 1017,7 hPa 0,0 l/m 0 min 0 min 49 W/m 6,4 km/h (2 Bft) 100,00 %
25.10.2018 10:02 12,0 C 11,7 C 11,1 C 85 % 1017,7 hPa 0,0 l/m 0 min 0 min 53 W/m 6,4 km/h (2 Bft) 100,00 %
25.10.2018 10:04 12,0 C 11,7 C 11,1 C 85 % 1017,8 hPa 0,0 l/m 0 min 0 min 51 W/m 6,4 km/h (2 Bft) 100,00 %
25.10.2018 10:08 12,0 C 11,7 C 11,1 C 85 % 1017,8 hPa 0,0 l/m 0 min 0 min 61 W/m 9,7 km/h (2 Bft) 100,00 %
25.10.2018 10:10 12,1 C 11,7 C 11,1 C 85 % 1017,8 hPa 0,0 l/m 0 min 0 min 65 W/m 9,7 km/h (2 Bft) 100,00 %
25.10.2018 10:12 12,1 C 11,7 C 11,1 C 85 % 1017,9 hPa 0,0 l/m 0 min 0 min 68 W/m 9,7 km/h (2 Bft) 100,00 %
25.10.2018 10:14 12,1 C 11,7 C 11,1 C 85 % 1017,8 hPa 0,0 l/m 0 min 0 min 64 W/m 3,2 km/h (1 Bft) 100,00 %
25.10.2018 10:16 12,1 C 12,2 C 11,1 C 85 % 1017,8 hPa 0,0 l/m 0 min 0 min 65 W/m 6,4 km/h (2 Bft) 97,87 %
25.10.2018 10:18 12,1 C 12,2 C 11,1 C 85 % 1017,8 hPa 0,0 l/m 0 min 0 min 71 W/m 6,4 km/h (2 Bft) 100,00 %
25.10.2018 10:20 12,2 C 12,2 C 11,1 C 85 % 1018,0 hPa 0,0 l/m 0 min 0 min 75 W/m 3,2 km/h (1 Bft) 100,00 %
25.10.2018 10:22 12,2 C 12,2 C 11,1 C 86 % 1018,0 hPa 0,0 l/m 0 min 0 min 78 W/m 6,4 km/h (2 Bft) 97,87 %
25.10.2018 10:24 12,2 C 12,2 C 11,1 C 86 % 1017,9 hPa 0,0 l/m 0 min 0 min 87 W/m 6,4 km/h (2 Bft) 100,00 %
25.10.2018 10:26 12,2 C 12,2 C 11,1 C 85 % 1017,9 hPa 0,0 l/m 0 min 0 min 97 W/m 9,7 km/h (2 Bft) 100,00 %
25.10.2018 10:28 12,2 C 12,2 C 11,1 C 85 % 1017,9 hPa 0,0 l/m 0 min 0 min 96 W/m 9,7 km/h (2 Bft) 100,00 %
25.10.2018 10:30 12,2 C 12,2 C 11,7 C 85 % 1017,9 hPa 0,0 l/m 0 min 0 min 93 W/m 9,7 km/h (2 Bft) 97,87 %
25.10.2018 10:32 12,2 C 12,2 C 11,7 C 85 % 1017,9 hPa 0,0 l/m 0 min 0 min 93 W/m 3,2 km/h (1 Bft) 100,00 %
25.10.2018 10:34 12,2 C 12,2 C 11,7 C 85 % 1018,0 hPa 0,0 l/m 0 min 0 min 91 W/m 6,4 km/h (2 Bft) 100,00 %
25.10.2018 10:38 12,3 C 12,2 C 11,7 C 85 % 1017,9 hPa 0,0 l/m 0 min 0 min 92 W/m 6,4 km/h (2 Bft) 100,00 %
25.10.2018 10:40 12,3 C 12,2 C 11,7 C 85 % 1017,8 hPa 0,0 l/m 0 min 0 min 91 W/m 6,4 km/h (2 Bft) 100,00 %
25.10.2018 10:42 12,3 C 12,2 C 11,7 C 85 % 1017,9 hPa 0,0 l/m 0 min 0 min 91 W/m 9,7 km/h (2 Bft) 100,00 %
25.10.2018 10:44 12,3 C 12,2 C 11,7 C 85 % 1017,8 hPa 0,0 l/m 0 min 0 min 92 W/m 12,9 km/h (3 Bft) 97,87 %
25.10.2018 10:46 12,3 C 12,2 C 11,7 C 85 % 1017,9 hPa 0,0 l/m 0 min 0 min 91 W/m 9,7 km/h (2 Bft) 100,00 %
25.10.2018 10:48 12,3 C 12,2 C 11,7 C 84 % 1017,9 hPa 0,0 l/m 0 min 0 min 82 W/m 6,4 km/h (2 Bft) 100,00 %
25.10.2018 10:50 12,3 C 12,2 C 11,7 C 84 % 1017,9 hPa 0,0 l/m 0 min 0 min 74 W/m 9,7 km/h (2 Bft) 100,00 %
25.10.2018 10:52 12,3 C 12,2 C 11,7 C 84 % 1018,0 hPa 0,0 l/m 0 min 0 min 87 W/m 6,4 km/h (2 Bft) 100,00 %
25.10.2018 10:54 12,3 C 12,2 C 11,7 C 84 % 1017,9 hPa 0,0 l/m 0 min 0 min 83 W/m 9,7 km/h (2 Bft) 100,00 %
25.10.2018 10:56 12,3 C 12,2 C 11,7 C 84 % 1017,9 hPa 0,0 l/m 0 min 0 min 82 W/m 6,4 km/h (2 Bft) 97,87 %
25.10.2018 10:58 12,3 C 12,2 C 11,7 C 84 % 1017,9 hPa 0,0 l/m 0 min 0 min 81 W/m 6,4 km/h (2 Bft) 97,83 %
25.10.2018 11:00 12,3 C 12,2 C 11,7 C 84 % 1017,9 hPa 0,0 l/m 0 min 0 min 83 W/m 6,4 km/h (2 Bft) 97,87 %
25.10.2018 11:02 12,3 C 12,2 C 11,7 C 84 % 1017,9 hPa 0,0 l/m 0 min 0 min 84 W/m 6,4 km/h (2 Bft) 100,00 %
25.10.2018 11:04 12,3 C 12,2 C 11,7 C 84 % 1017,9 hPa 0,0 l/m 0 min 0 min 92 W/m 9,7 km/h (2 Bft) 100,00 %
25.10.2018 11:08 12,4 C 12,2 C 11,7 C 84 % 1018,0 hPa 0,0 l/m 0 min 0 min 97 W/m 12,9 km/h (3 Bft) 95,74 %
25.10.2018 11:10 12,4 C 12,2 C 11,7 C 84 % 1017,9 hPa 0,0 l/m 0 min 0 min 98 W/m 6,4 km/h (2 Bft) 95,65 %
25.10.2018 11:12 12,4 C 12,2 C 11,7 C 84 % 1017,8 hPa 0,0 l/m 0 min 0 min 104 W/m 9,7 km/h (2 Bft) 97,87 %
25.10.2018 11:14 12,4 C 12,2 C 11,7 C 84 % 1017,8 hPa 0,0 l/m 0 min 0 min 101 W/m 6,4 km/h (2 Bft) 97,87 %
25.10.2018 11:16 12,4 C 12,2 C 11,7 C 84 % 1017,8 hPa 0,0 l/m 0 min 0 min 103 W/m 6,4 km/h (2 Bft) 97,87 %
25.10.2018 11:18 12,4 C 12,2 C 11,7 C 84 % 1017,7 hPa 0,0 l/m 0 min 0 min 100 W/m 6,4 km/h (2 Bft) 93,62 %
25.10.2018 11:20 12,4 C 12,2 C 11,7 C 84 % 1017,8 hPa 0,0 l/m 0 min 0 min 97 W/m 9,7 km/h (2 Bft) 93,62 %
25.10.2018 11:22 12,4 C 12,2 C 11,7 C 84 % 1017,7 hPa 0,0 l/m 0 min 0 min 99 W/m 9,7 km/h (2 Bft) 95,65 %
25.10.2018 11:24 12,4 C 12,2 C 11,7 C 84 % 1017,8 hPa 0,0 l/m 0 min 0 min 97 W/m 3,2 km/h (1 Bft) 91,49 %
25.10.2018 11:26 12,4 C 12,2 C 11,7 C 84 % 1017,8 hPa 0,0 l/m 0 min 0 min 90 W/m 9,7 km/h (2 Bft) 89,36 %
25.10.2018 11:28 12,5 C 12,2 C 11,7 C 84 % 1017,8 hPa 0,0 l/m 0 min 0 min 84 W/m 6,4 km/h (2 Bft) 93,62 %
25.10.2018 11:30 12,5 C 12,2 C 11,7 C 84 % 1017,7 hPa 0,0 l/m 0 min 0 min 86 W/m 16,1 km/h (3 Bft) 93,62 %
25.10.2018 11:32 12,5 C 12,2 C 11,7 C 83 % 1017,8 hPa 0,0 l/m 0 min 0 min 86 W/m 6,4 km/h (2 Bft) 92,68 %
25.10.2018 11:34 12,5 C 12,2 C 11,7 C 83 % 1017,8 hPa 0,0 l/m 0 min 0 min 93 W/m 9,7 km/h (2 Bft) 97,87 %
25.10.2018 11:38 12,5 C 12,2 C 11,7 C 83 % 1017,8 hPa 0,0 l/m 0 min 0 min 96 W/m 12,9 km/h (3 Bft) 93,62 %
25.10.2018 11:40 12,5 C 12,2 C 11,7 C 83 % 1017,8 hPa 0,0 l/m 0 min 0 min 95 W/m 6,4 km/h (2 Bft) 91,49 %
25.10.2018 11:42 12,6 C 12,2 C 11,7 C 83 % 1017,9 hPa 0,0 l/m 0 min 0 min 102 W/m 6,4 km/h (2 Bft) 93,48 %
25.10.2018 11:44 12,6 C 12,2 C 11,7 C 84 % 1017,9 hPa 0,0 l/m 0 min 0 min 111 W/m 9,7 km/h (2 Bft) 91,49 %
25.10.2018 11:46 12,6 C 12,2 C 11,7 C 84 % 1017,7 hPa 0,0 l/m 0 min 0 min 114 W/m 6,4 km/h (2 Bft) 93,62 %
25.10.2018 11:48 12,6 C 12,8 C 11,7 C 83 % 1017,8 hPa 0,0 l/m 0 min 0 min 118 W/m 9,7 km/h (2 Bft) 93,62 %
25.10.2018 11:50 12,6 C 12,8 C 11,7 C 83 % 1017,8 hPa 0,0 l/m 0 min 0 min 117 W/m 6,4 km/h (2 Bft) 93,62 %
25.10.2018 11:52 12,6 C 12,8 C 11,7 C 83 % 1017,8 hPa 0,0 l/m 0 min 0 min 109 W/m 6,4 km/h (2 Bft) 91,49 %
25.10.2018 11:54 12,6 C 12,8 C 11,7 C 83 % 1017,8 hPa 0,0 l/m 0 min 0 min 101 W/m 3,2 km/h (1 Bft) 95,65 %
25.10.2018 11:56 12,6 C 12,8 C 11,7 C 83 % 1017,8 hPa 0,0 l/m 0 min 0 min 108 W/m 6,4 km/h (2 Bft) 95,74 %
25.10.2018 11:58 12,6 C 12,8 C 11,7 C 83 % 1017,8 hPa 0,0 l/m 0 min 0 min 118 W/m 6,4 km/h (2 Bft) 93,62 %
25.10.2018 12:00 12,6 C 12,8 C 11,7 C 83 % 1017,8 hPa 0,0 l/m 0 min 0 min 132 W/m 6,4 km/h (2 Bft) 93,62 %
25.10.2018 12:02 12,7 C 12,8 C 11,7 C 83 % 1017,8 hPa 0,0 l/m 0 min 0 min 131 W/m 6,4 km/h (2 Bft) 94,23 %
25.10.2018 12:04 12,7 C 12,8 C 11,7 C 83 % 1017,8 hPa 0,0 l/m 0 min 0 min 121 W/m 9,7 km/h (2 Bft) 95,56 %
25.10.2018 12:08 12,7 C 12,8 C 11,7 C 83 % 1017,8 hPa 0,0 l/m 0 min 0 min 113 W/m 9,7 km/h (2 Bft) 95,74 %
25.10.2018 12:10 12,7 C 12,8 C 11,7 C 83 % 1017,8 hPa 0,0 l/m 0 min 0 min 119 W/m 16,1 km/h (3 Bft) 97,87 %
25.10.2018 12:12 12,7 C 12,8 C 11,7 C 83 % 1017,8 hPa 0,0 l/m 0 min 0 min 111 W/m 9,7 km/h (2 Bft) 97,87 %
25.10.2018 12:14 12,8 C 12,8 C 11,7 C 82 % 1017,8 hPa 0,0 l/m 0 min 0 min 101 W/m 6,4 km/h (2 Bft) 97,87 %
25.10.2018 12:16 12,8 C 12,8 C 11,7 C 82 % 1017,8 hPa 0,0 l/m 0 min 0 min 106 W/m 6,4 km/h (2 Bft) 97,83 %
25.10.2018 12:18 12,8 C 12,8 C 11,7 C 83 % 1017,8 hPa 0,0 l/m 0 min 0 min 116 W/m 6,4 km/h (2 Bft) 97,87 %
25.10.2018 12:20 12,8 C 12,8 C 11,7 C 83 % 1017,8 hPa 0,0 l/m 0 min 0 min 120 W/m 9,7 km/h (2 Bft) 100,00 %
25.10.2018 12:22 12,8 C 12,8 C 12,2 C 82 % 1017,8 hPa 0,0 l/m 0 min 0 min 115 W/m 6,4 km/h (2 Bft) 97,87 %
25.10.2018 12:24 12,8 C 12,8 C 11,7 C 82 % 1017,8 hPa 0,0 l/m 0 min 0 min 120 W/m 9,7 km/h (2 Bft) 97,87 %
25.10.2018 12:26 12,8 C 12,8 C 11,7 C 82 % 1017,8 hPa 0,0 l/m 0 min 0 min 131 W/m 12,9 km/h (3 Bft) 100,00 %
25.10.2018 12:28 12,8 C 12,8 C 12,2 C 82 % 1017,7 hPa 0,0 l/m 0 min 0 min 140 W/m 6,4 km/h (2 Bft) 100,00 %
25.10.2018 12:30 12,9 C 12,8 C 12,2 C 82 % 1017,7 hPa 0,0 l/m 0 min 0 min 140 W/m 6,4 km/h (2 Bft) 100,00 %
25.10.2018 12:32 12,9 C 12,8 C 12,2 C 82 % 1017,7 hPa 0,0 l/m 0 min 0 min 131 W/m 16,1 km/h (3 Bft) 97,87 %
25.10.2018 12:34 12,9 C 12,8 C 12,2 C 82 % 1017,7 hPa 0,0 l/m 0 min 0 min 120 W/m 9,7 km/h (2 Bft) 97,87 %
25.10.2018 12:38 12,9 C 12,8 C 12,2 C 82 % 1017,6 hPa 0,0 l/m 0 min 0 min 129 W/m 9,7 km/h (2 Bft) 100,00 %
25.10.2018 12:40 12,9 C 12,8 C 12,2 C 82 % 1017,6 hPa 0,0 l/m 0 min 0 min 135 W/m 9,7 km/h (2 Bft) 100,00 %
25.10.2018 12:42 13,0 C 13,3 C 12,2 C 82 % 1017,6 hPa 0,0 l/m 0 min 0 min 137 W/m 6,4 km/h (2 Bft) 100,00 %
25.10.2018 12:44 13,0 C 13,3 C 12,2 C 82 % 1017,6 hPa 0,0 l/m 0 min 0 min 137 W/m 6,4 km/h (2 Bft) 97,87 %
25.10.2018 12:46 13,1 C 13,3 C 12,2 C 82 % 1017,6 hPa 0,0 l/m 0 min 0 min 135 W/m 6,4 km/h (2 Bft) 100,00 %
25.10.2018 12:48 13,1 C 13,3 C 12,2 C 82 % 1017,5 hPa 0,0 l/m 0 min 0 min 132 W/m 6,4 km/h (2 Bft) 100,00 %
25.10.2018 12:50 13,1 C 13,3 C 12,2 C 82 % 1017,5 hPa 0,0 l/m 0 min 0 min 125 W/m 9,7 km/h (2 Bft) 100,00 %
25.10.2018 12:52 13,1 C 12,8 C 12,2 C 82 % 1017,5 hPa 0,0 l/m 0 min 0 min 120 W/m 12,9 km/h (3 Bft) 100,00 %
25.10.2018 12:54 13,1 C 12,8 C 12,2 C 82 % 1017,4 hPa 0,0 l/m 0 min 0 min 116 W/m 6,4 km/h (2 Bft) 100,00 %
25.10.2018 12:56 13,1 C 12,8 C 12,2 C 82 % 1017,4 hPa 0,0 l/m 0 min 0 min 101 W/m 9,7 km/h (2 Bft) 100,00 %
25.10.2018 12:58 13,2 C 12,8 C 12,2 C 82 % 1017,4 hPa 0,0 l/m 0 min 0 min 95 W/m 9,7 km/h (2 Bft) 100,00 %
25.10.2018 13:00 13,2 C 12,8 C 12,2 C 81 % 1017,4 hPa 0,0 l/m 0 min 0 min 106 W/m 9,7 km/h (2 Bft) 100,00 %
25.10.2018 13:02 13,2 C 12,8 C 12,2 C 81 % 1017,4 hPa 0,0 l/m 0 min 0 min 114 W/m 12,9 km/h (3 Bft) 97,83 %
25.10.2018 13:04 13,2 C 12,8 C 12,2 C 81 % 1017,5 hPa 0,0 l/m 0 min 0 min 116 W/m 9,7 km/h (2 Bft) 100,00 %
25.10.2018 13:08 13,2 C 12,8 C 12,2 C 81 % 1017,4 hPa 0,0 l/m 0 min 0 min 124 W/m 16,1 km/h (3 Bft) 98,94 %
25.10.2018 13:10 13,2 C 12,8 C 12,2 C 81 % 1017,3 hPa 0,0 l/m 0 min 0 min 136 W/m 16,1 km/h (3 Bft) 100,00 %
25.10.2018 13:12 13,2 C 12,8 C 12,2 C 81 % 1017,3 hPa 0,0 l/m 0 min 0 min 138 W/m 9,7 km/h (2 Bft) 100,00 %
25.10.2018 13:14 13,2 C 12,8 C 12,2 C 81 % 1017,2 hPa 0,0 l/m 0 min 0 min 144 W/m 9,7 km/h (2 Bft) 100,00 %
25.10.2018 13:16 13,3 C 13,3 C 12,2 C 81 % 1017,3 hPa 0,0 l/m 0 min 0 min 144 W/m 6,4 km/h (2 Bft) 100,00 %
25.10.2018 13:18 13,3 C 13,3 C 12,2 C 81 % 1017,3 hPa 0,0 l/m 0 min 0 min 136 W/m 6,4 km/h (2 Bft) 100,00 %
25.10.2018 13:20 13,3 C 13,3 C 12,2 C 81 % 1017,2 hPa 0,0 l/m 0 min 0 min 127 W/m 6,4 km/h (2 Bft) 100,00 %
25.10.2018 13:22 13,3 C 13,3 C 12,2 C 81 % 1017,2 hPa 0,0 l/m 0 min 0 min 125 W/m 6,4 km/h (2 Bft) 100,00 %
25.10.2018 13:24 13,3 C 12,8 C 12,2 C 81 % 1017,3 hPa 0,0 l/m 0 min 0 min 127 W/m 16,1 km/h (3 Bft) 100,00 %
25.10.2018 13:26 13,3 C 12,8 C 12,2 C 81 % 1017,3 hPa 0,0 l/m 0 min 0 min 121 W/m 9,7 km/h (2 Bft) 100,00 %
25.10.2018 13:28 13,3 C 12,8 C 12,2 C 81 % 1017,2 hPa 0,0 l/m 0 min 0 min 117 W/m 9,7 km/h (2 Bft) 100,00 %
25.10.2018 13:30 13,3 C 12,8 C 12,2 C 81 % 1017,2 hPa 0,0 l/m 0 min 0 min 120 W/m 6,4 km/h (2 Bft) 100,00 %
25.10.2018 13:32 13,3 C 13,3 C 12,2 C 81 % 1017,2 hPa 0,0 l/m 0 min 0 min 124 W/m 9,7 km/h (2 Bft) 97,87 %
25.10.2018 13:34 13,3 C 13,3 C 12,2 C 81 % 1017,1 hPa 0,0 l/m 0 min 0 min 132 W/m 6,4 km/h (2 Bft) 100,00 %
25.10.2018 13:38 13,4 C 13,3 C 12,2 C 82 % 1017,1 hPa 0,0 l/m 0 min 0 min 149 W/m 12,9 km/h (3 Bft) 100,00 %
25.10.2018 13:40 13,4 C 13,3 C 12,2 C 82 % 1017,1 hPa 0,0 l/m 0 min 0 min 162 W/m 9,7 km/h (2 Bft) 97,87 %
25.10.2018 13:42 13,4 C 13,3 C 12,2 C 82 % 1017,0 hPa 0,0 l/m 0 min 0 min 160 W/m 9,7 km/h (2 Bft) 95,74 %
25.10.2018 13:44 13,4 C 13,3 C 12,2 C 81 % 1017,1 hPa 0,0 l/m 0 min 0 min 154 W/m 9,7 km/h (2 Bft) 97,83 %
25.10.2018 13:46 13,4 C 13,3 C 12,2 C 81 % 1017,1 hPa 0,0 l/m 0 min 0 min 144 W/m 9,7 km/h (2 Bft) 97,62 %
25.10.2018 13:48 13,4 C 13,3 C 12,2 C 81 % 1017,1 hPa 0,0 l/m 0 min 0 min 133 W/m 6,4 km/h (2 Bft) 95,74 %
25.10.2018 13:50 13,4 C 13,3 C 12,2 C 81 % 1017,1 hPa 0,0 l/m 0 min 0 min 124 W/m 9,7 km/h (2 Bft) 97,87 %
25.10.2018 13:52 13,4 C 12,8 C 12,2 C 81 % 1017,1 hPa 0,0 l/m 0 min 0 min 122 W/m 6,4 km/h (2 Bft) 97,83 %
25.10.2018 13:54 13,4 C 13,3 C 12,2 C 81 % 1017,0 hPa 0,0 l/m 0 min 0 min 122 W/m 6,4 km/h (2 Bft) 97,87 %
25.10.2018 13:56 13,4 C 12,8 C 12,2 C 81 % 1017,0 hPa 0,0 l/m 0 min 0 min 112 W/m 12,9 km/h (3 Bft) 97,87 %
25.10.2018 13:58 13,4 C 12,8 C 12,2 C 81 % 1017,0 hPa 0,0 l/m 0 min 0 min 92 W/m 12,9 km/h (3 Bft) 97,87 %
25.10.2018 14:00 13,4 C 12,8 C 12,2 C 81 % 1016,9 hPa 0,0 l/m 0 min 0 min 91 W/m 9,7 km/h (2 Bft) 97,87 %
25.10.2018 14:02 13,4 C 12,8 C 12,2 C 81 % 1016,9 hPa 0,0 l/m 0 min 0 min 96 W/m 12,9 km/h (3 Bft) 97,87 %
25.10.2018 14:04 13,4 C 12,8 C 12,2 C 81 % 1016,9 hPa 0,0 l/m 0 min 0 min 97 W/m 6,4 km/h (2 Bft) 97,83 %
25.10.2018 14:08 13,3 C 12,8 C 12,2 C 81 % 1016,9 hPa 0,0 l/m 0 min 0 min 101 W/m 9,7 km/h (2 Bft) 95,74 %
25.10.2018 14:10 13,3 C 12,8 C 12,2 C 81 % 1016,9 hPa 0,0 l/m 0 min 0 min 111 W/m 9,7 km/h (2 Bft) 97,87 %
25.10.2018 14:12 13,3 C 12,8 C 12,2 C 81 % 1016,9 hPa 0,0 l/m 0 min 0 min 119 W/m 9,7 km/h (2 Bft) 95,74 %
25.10.2018 14:14 13,3 C 12,8 C 12,2 C 81 % 1016,9 hPa 0,0 l/m 0 min 0 min 129 W/m 12,9 km/h (3 Bft) 95,74 %
25.10.2018 14:16 13,3 C 12,8 C 12,2 C 81 % 1016,8 hPa 0,0 l/m 0 min 0 min 142 W/m 9,7 km/h (2 Bft) 97,87 %
25.10.2018 14:18 13,3 C 12,8 C 12,2 C 81 % 1016,8 hPa 0,0 l/m 0 min 0 min 150 W/m 6,4 km/h (2 Bft) 97,87 %
25.10.2018 14:20 13,3 C 13,3 C 12,2 C 81 % 1016,8 hPa 0,0 l/m 0 min 0 min 148 W/m 9,7 km/h (2 Bft) 97,87 %
25.10.2018 14:22 13,3 C 13,3 C 12,2 C 81 % 1016,9 hPa 0,0 l/m 0 min 0 min 141 W/m 12,9 km/h (3 Bft) 93,62 %
25.10.2018 14:24 13,3 C 13,3 C 12,2 C 81 % 1016,8 hPa 0,0 l/m 0 min 0 min 135 W/m 12,9 km/h (3 Bft) 95,74 %
25.10.2018 14:26 13,3 C 13,3 C 12,2 C 82 % 1016,8 hPa 0,0 l/m 0 min 0 min 135 W/m 9,7 km/h (2 Bft) 97,87 %
25.10.2018 14:28 13,3 C 13,3 C 12,2 C 82 % 1016,8 hPa 0,0 l/m 0 min 0 min 131 W/m 6,4 km/h (2 Bft) 100,00 %
25.10.2018 14:30 13,3 C 13,3 C 12,2 C 82 % 1016,8 hPa 0,0 l/m 0 min 0 min 126 W/m 9,7 km/h (2 Bft) 97,87 %
25.10.2018 14:32 13,3 C 13,3 C 12,2 C 82 % 1016,8 hPa 0,0 l/m 0 min 0 min 121 W/m 9,7 km/h (2 Bft) 95,74 %
25.10.2018 14:34 13,3 C 13,3 C 12,2 C 81 % 1016,8 hPa 0,0 l/m 0 min 0 min 120 W/m 6,4 km/h (2 Bft) 97,87 %
25.10.2018 14:38 13,3 C 12,8 C 12,2 C 81 % 1016,8 hPa 0,0 l/m 0 min 0 min 117 W/m 9,7 km/h (2 Bft) 97,87 %
25.10.2018 14:40 13,3 C 12,8 C 12,2 C 81 % 1016,8 hPa 0,0 l/m 0 min 0 min 108 W/m 12,9 km/h (3 Bft) 95,65 %
25.10.2018 14:42 13,3 C 12,8 C 12,2 C 81 % 1016,7 hPa 0,0 l/m 0 min 0 min 103 W/m 12,9 km/h (3 Bft) 91,49 %
25.10.2018 14:44 13,3 C 12,8 C 12,2 C 81 % 1016,8 hPa 0,0 l/m 0 min 0 min 102 W/m 6,4 km/h (2 Bft) 95,74 %
25.10.2018 14:46 13,3 C 12,8 C 12,2 C 81 % 1016,6 hPa 0,0 l/m 0 min 0 min 104 W/m 6,4 km/h (2 Bft) 95,83 %
25.10.2018 14:48 13,3 C 12,8 C 12,2 C 81 % 1016,7 hPa 0,0 l/m 0 min 0 min 102 W/m 6,4 km/h (2 Bft) 93,62 %
25.10.2018 14:50 13,3 C 12,8 C 12,2 C 82 % 1016,6 hPa 0,0 l/m 0 min 0 min 100 W/m 9,7 km/h (2 Bft) 95,65 %
25.10.2018 14:52 13,3 C 12,8 C 12,2 C 81 % 1016,6 hPa 0,0 l/m 0 min 0 min 100 W/m 6,4 km/h (2 Bft) 95,74 %
25.10.2018 14:54 13,3 C 12,8 C 12,2 C 81 % 1016,6 hPa 0,0 l/m 0 min 0 min 98 W/m 9,7 km/h (2 Bft) 95,74 %
25.10.2018 14:56 13,3 C 12,8 C 12,2 C 81 % 1016,6 hPa 0,0 l/m 0 min 0 min 97 W/m 6,4 km/h (2 Bft) 95,74 %
25.10.2018 14:58 13,3 C 12,8 C 12,2 C 81 % 1016,5 hPa 0,0 l/m 0 min 0 min 92 W/m 9,7 km/h (2 Bft) 95,74 %
25.10.2018 15:00 13,3 C 12,8 C 12,2 C 81 % 1016,5 hPa 0,0 l/m 0 min 0 min 91 W/m 6,4 km/h (2 Bft) 95,74 %
25.10.2018 15:02 13,3 C 12,8 C 12,2 C 81 % 1016,5 hPa 0,0 l/m 0 min 0 min 91 W/m 12,9 km/h (3 Bft) 91,30 %
25.10.2018 15:04 13,3 C 12,8 C 12,2 C 81 % 1016,6 hPa 0,0 l/m 0 min 0 min 85 W/m 6,4 km/h (2 Bft) 95,74 %
25.10.2018 15:08 13,3 C 12,8 C 12,2 C 81 % 1016,6 hPa 0,0 l/m 0 min 0 min 76 W/m 9,7 km/h (2 Bft) 95,79 %
25.10.2018 15:10 13,3 C 12,8 C 12,2 C 81 % 1016,6 hPa 0,0 l/m 0 min 0 min 64 W/m 6,4 km/h (2 Bft) 95,74 %
25.10.2018 15:12 13,2 C 12,8 C 12,2 C 81 % 1016,6 hPa 0,0 l/m 0 min 0 min 58 W/m 9,7 km/h (2 Bft) 91,49 %
25.10.2018 15:14 13,2 C 12,8 C 12,2 C 81 % 1016,5 hPa 0,0 l/m 0 min 0 min 54 W/m 6,4 km/h (2 Bft) 95,65 %
25.10.2018 15:16 13,2 C 12,8 C 12,2 C 81 % 1016,5 hPa 0,0 l/m 0 min 0 min 50 W/m 12,9 km/h (3 Bft) 95,74 %
25.10.2018 15:18 13,2 C 12,8 C 12,2 C 81 % 1016,5 hPa 0,0 l/m 0 min 0 min 47 W/m 6,4 km/h (2 Bft) 95,74 %
25.10.2018 15:20 13,2 C 12,2 C 12,2 C 81 % 1016,5 hPa 0,0 l/m 0 min 0 min 47 W/m 9,7 km/h (2 Bft) 95,74 %
25.10.2018 15:22 13,2 C 12,8 C 12,2 C 81 % 1016,5 hPa 0,0 l/m 0 min 0 min 47 W/m 6,4 km/h (2 Bft) 97,87 %
25.10.2018 15:24 13,2 C 12,2 C 12,2 C 81 % 1016,4 hPa 0,0 l/m 0 min 0 min 44 W/m 6,4 km/h (2 Bft) 97,87 %
25.10.2018 15:26 13,2 C 12,2 C 12,2 C 81 % 1016,5 hPa 0,0 l/m 0 min 0 min 42 W/m 3,2 km/h (1 Bft) 95,65 %
25.10.2018 15:28 13,2 C 12,2 C 12,2 C 82 % 1016,5 hPa 0,0 l/m 0 min 0 min 42 W/m 3,2 km/h (1 Bft) 97,87 %
25.10.2018 15:30 13,1 C 12,2 C 12,2 C 82 % 1016,4 hPa 0,0 l/m 0 min 0 min 44 W/m 6,4 km/h (2 Bft) 97,87 %
25.10.2018 15:32 13,1 C 12,2 C 12,2 C 82 % 1016,4 hPa 0,0 l/m 0 min 0 min 46 W/m 9,7 km/h (2 Bft) 93,62 %
25.10.2018 15:34 13,1 C 12,2 C 12,2 C 82 % 1016,3 hPa 0,0 l/m 0 min 0 min 50 W/m 6,4 km/h (2 Bft) 97,87 %
25.10.2018 15:38 13,1 C 12,2 C 12,2 C 82 % 1016,3 hPa 0,0 l/m 0 min 0 min 57 W/m 6,4 km/h (2 Bft) 95,70 %
25.10.2018 15:40 13,1 C 12,8 C 12,2 C 82 % 1016,3 hPa 0,0 l/m 0 min 0 min 64 W/m 6,4 km/h (2 Bft) 100,00 %
25.10.2018 15:42 13,1 C 12,8 C 12,2 C 82 % 1016,2 hPa 0,0 l/m 0 min 0 min 70 W/m 9,7 km/h (2 Bft) 100,00 %
25.10.2018 15:44 13,1 C 12,8 C 12,2 C 82 % 1016,3 hPa 0,0 l/m 0 min 0 min 75 W/m 6,4 km/h (2 Bft) 100,00 %
25.10.2018 15:46 13,1 C 12,8 C 12,2 C 82 % 1016,3 hPa 0,0 l/m 0 min 0 min 70 W/m 3,2 km/h (1 Bft) 100,00 %
25.10.2018 15:48 13,1 C 12,8 C 12,2 C 82 % 1016,3 hPa 0,0 l/m 0 min 0 min 65 W/m 6,4 km/h (2 Bft) 97,87 %
25.10.2018 15:50 13,1 C 12,8 C 12,2 C 82 % 1016,2 hPa 0,0 l/m 0 min 0 min 61 W/m 6,4 km/h (2 Bft) 100,00 %
25.10.2018 15:52 13,1 C 12,8 C 12,2 C 82 % 1016,3 hPa 0,0 l/m 0 min 0 min 59 W/m 12,9 km/h (3 Bft) 100,00 %
25.10.2018 15:54 13,1 C 12,8 C 12,2 C 82 % 1016,3 hPa 0,0 l/m 0 min 0 min 55 W/m 9,7 km/h (2 Bft) 100,00 %
25.10.2018 15:56 13,1 C 12,8 C 12,2 C 82 % 1016,2 hPa 0,0 l/m 0 min 0 min 54 W/m 9,7 km/h (2 Bft) 100,00 %
25.10.2018 15:58 13,1 C 12,8 C 12,2 C 82 % 1016,2 hPa 0,0 l/m 0 min 0 min 53 W/m 6,4 km/h (2 Bft) 97,87 %
25.10.2018 16:00 13,1 C 12,8 C 12,2 C 82 % 1016,2 hPa 0,0 l/m 0 min 0 min 50 W/m 6,4 km/h (2 Bft) 97,83 %
25.10.2018 16:02 13,1 C 12,8 C 12,2 C 82 % 1016,3 hPa 0,0 l/m 0 min 0 min 54 W/m 6,4 km/h (2 Bft) 97,87 %
25.10.2018 16:04 13,1 C 12,8 C 12,2 C 82 % 1016,2 hPa 0,0 l/m 0 min 0 min 53 W/m 3,2 km/h (1 Bft) 100,00 %
25.10.2018 16:08 13,1 C 12,8 C 12,2 C 82 % 1016,2 hPa 0,0 l/m 0 min 0 min 48 W/m 12,9 km/h (3 Bft) 100,00 %
25.10.2018 16:10 13,0 C 12,8 C 12,2 C 82 % 1016,2 hPa 0,0 l/m 0 min 0 min 47 W/m 9,7 km/h (2 Bft) 100,00 %
25.10.2018 16:12 13,0 C 12,2 C 12,2 C 82 % 1016,3 hPa 0,0 l/m 0 min 0 min 45 W/m 9,7 km/h (2 Bft) 97,83 %
25.10.2018 16:14 13,0 C 12,2 C 12,2 C 82 % 1016,2 hPa 0,0 l/m 0 min 0 min 41 W/m 9,7 km/h (2 Bft) 100,00 %
25.10.2018 16:16 13,0 C 12,2 C 12,2 C 82 % 1016,2 hPa 0,0 l/m 0 min 0 min 41 W/m 12,9 km/h (3 Bft) 100,00 %
25.10.2018 16:18 13,0 C 12,2 C 12,2 C 82 % 1016,2 hPa 0,0 l/m 0 min 0 min 38 W/m 12,9 km/h (3 Bft) 100,00 %
25.10.2018 16:20 13,0 C 12,2 C 12,2 C 82 % 1016,2 hPa 0,0 l/m 0 min 0 min 37 W/m 9,7 km/h (2 Bft) 97,87 %
25.10.2018 16:22 13,0 C 12,2 C 12,2 C 82 % 1016,2 hPa 0,0 l/m 0 min 0 min 37 W/m 9,7 km/h (2 Bft) 100,00 %
25.10.2018 16:24 13,0 C 12,2 C 12,2 C 82 % 1016,2 hPa 0,0 l/m 0 min 0 min 36 W/m 6,4 km/h (2 Bft) 95,65 %
25.10.2018 16:26 13,0 C 12,2 C 12,2 C 82 % 1016,2 hPa 0,0 l/m 0 min 0 min 35 W/m 12,9 km/h (3 Bft) 97,87 %
25.10.2018 16:28 12,9 C 12,2 C 11,7 C 82 % 1016,1 hPa 0,0 l/m 0 min 0 min 35 W/m 12,9 km/h (3 Bft) 97,87 %
25.10.2018 16:30 12,9 C 12,2 C 11,7 C 82 % 1016,1 hPa 0,0 l/m 0 min 0 min 36 W/m 9,7 km/h (2 Bft) 97,87 %
25.10.2018 16:32 12,9 C 12,2 C 12,2 C 82 % 1016,1 hPa 0,0 l/m 0 min 0 min 35 W/m 6,4 km/h (2 Bft) 97,87 %
25.10.2018 16:34 12,9 C 12,2 C 11,7 C 82 % 1016,0 hPa 0,0 l/m 0 min 0 min 35 W/m 9,7 km/h (2 Bft) 93,88 %
25.10.2018 16:38 12,9 C 12,2 C 11,7 C 82 % 1016,1 hPa 0,0 l/m 0 min 0 min 33 W/m 9,7 km/h (2 Bft) 97,85 %
25.10.2018 16:40 12,9 C 12,2 C 11,7 C 82 % 1016,1 hPa 0,0 l/m 0 min 0 min 33 W/m 6,4 km/h (2 Bft) 95,74 %
25.10.2018 16:42 12,9 C 12,2 C 11,7 C 82 % 1016,1 hPa 0,0 l/m 0 min 0 min 32 W/m 6,4 km/h (2 Bft) 97,87 %
25.10.2018 16:44 12,9 C 12,2 C 11,7 C 82 % 1016,1 hPa 0,0 l/m 0 min 0 min 31 W/m 6,4 km/h (2 Bft) 97,87 %
25.10.2018 16:46 12,9 C 12,2 C 11,7 C 82 % 1016,1 hPa 0,0 l/m 0 min 0 min 29 W/m 12,9 km/h (3 Bft) 97,83 %
25.10.2018 16:48 12,9 C 12,2 C 11,7 C 82 % 1016,2 hPa 0,0 l/m 0 min 0 min 26 W/m 9,7 km/h (2 Bft) 97,87 %
25.10.2018 16:50 12,9 C 12,2 C 11,7 C 82 % 1016,1 hPa 0,0 l/m 0 min 0 min 25 W/m 6,4 km/h (2 Bft) 97,87 %
25.10.2018 16:52 12,8 C 12,2 C 11,7 C 82 % 1016,1 hPa 0,0 l/m 0 min 0 min 25 W/m 9,7 km/h (2 Bft) 97,87 %
25.10.2018 16:54 12,8 C 12,2 C 11,7 C 82 % 1016,1 hPa 0,0 l/m 0 min 0 min 23 W/m 6,4 km/h (2 Bft) 97,87 %
25.10.2018 16:56 12,8 C 12,2 C 11,7 C 82 % 1016,1 hPa 0,0 l/m 0 min 0 min 21 W/m 6,4 km/h (2 Bft) 95,74 %
25.10.2018 16:58 12,8 C 12,2 C 11,7 C 82 % 1016,1 hPa 0,0 l/m 0 min 0 min 21 W/m 6,4 km/h (2 Bft) 97,83 %
25.10.2018 17:00 12,8 C 12,2 C 11,7 C 82 % 1016,1 hPa 0,0 l/m 0 min 0 min 21 W/m 9,7 km/h (2 Bft) 97,87 %
25.10.2018 17:02 12,8 C 12,2 C 11,7 C 82 % 1016,0 hPa 0,0 l/m 0 min 0 min 19 W/m 6,4 km/h (2 Bft) 97,87 %
25.10.2018 17:04 12,8 C 12,2 C 11,7 C 82 % 1016,0 hPa 0,0 l/m 0 min 0 min 19 W/m 6,4 km/h (2 Bft) 97,87 %
25.10.2018 17:08 12,8 C 12,2 C 11,7 C 83 % 1016,1 hPa 0,0 l/m 0 min 0 min 21 W/m 9,7 km/h (2 Bft) 98,94 %
25.10.2018 17:10 12,8 C 12,2 C 11,7 C 83 % 1016,1 hPa 0,0 l/m 0 min 0 min 19 W/m 6,4 km/h (2 Bft) 97,83 %
25.10.2018 17:12 12,8 C 12,2 C 11,7 C 83 % 1016,0 hPa 0,0 l/m 0 min 0 min 18 W/m 9,7 km/h (2 Bft) 100,00 %
25.10.2018 17:14 12,7 C 12,2 C 11,7 C 83 % 1016,0 hPa 0,0 l/m 0 min 0 min 18 W/m 6,4 km/h (2 Bft) 97,87 %
25.10.2018 17:16 12,7 C 12,2 C 11,7 C 83 % 1016,0 hPa 0,0 l/m 0 min 0 min 16 W/m 6,4 km/h (2 Bft) 100,00 %
25.10.2018 17:18 12,7 C 12,2 C 11,7 C 83 % 1016,0 hPa 0,0 l/m 0 min 0 min 12 W/m 6,4 km/h (2 Bft) 97,87 %
25.10.2018 17:20 12,7 C 12,2 C 11,7 C 83 % 1016,0 hPa 0,0 l/m 0 min 0 min 12 W/m 3,2 km/h (1 Bft) 100,00 %
25.10.2018 17:22 12,7 C 12,2 C 11,7 C 83 % 1015,9 hPa 0,0 l/m 0 min 0 min 12 W/m 6,4 km/h (2 Bft) 97,87 %
25.10.2018 17:24 12,7 C 12,2 C 11,7 C 83 % 1016,0 hPa 0,0 l/m 0 min 0 min 12 W/m 9,7 km/h (2 Bft) 97,87 %
25.10.2018 17:26 12,7 C 12,2 C 11,7 C 83 % 1016,0 hPa 0,0 l/m 0 min 0 min 13 W/m 6,4 km/h (2 Bft) 97,87 %
25.10.2018 17:28 12,7 C 12,2 C 11,7 C 83 % 1016,0 hPa 0,0 l/m 0 min 0 min 12 W/m 9,7 km/h (2 Bft) 97,83 %
25.10.2018 17:30 12,7 C 12,2 C 11,7 C 83 % 1016,0 hPa 0,0 l/m 0 min 0 min 12 W/m 6,4 km/h (2 Bft) 100,00 %
25.10.2018 17:32 12,7 C 12,2 C 11,7 C 83 % 1016,0 hPa 0,0 l/m 0 min 0 min 12 W/m 6,4 km/h (2 Bft) 95,74 %
25.10.2018 17:34 12,6 C 11,7 C 11,7 C 83 % 1016,0 hPa 0,0 l/m 0 min 0 min 12 W/m 6,4 km/h (2 Bft) 97,87 %
25.10.2018 17:38 12,6 C 11,7 C 11,7 C 83 % 1015,9 hPa 0,0 l/m 0 min 0 min 11 W/m 6,4 km/h (2 Bft) 97,87 %
25.10.2018 17:40 12,6 C 11,7 C 11,7 C 83 % 1015,9 hPa 0,0 l/m 0 min 0 min 11 W/m 6,4 km/h (2 Bft) 95,65 %
25.10.2018 17:42 12,6 C 11,7 C 11,7 C 83 % 1015,9 hPa 0,0 l/m 0 min 0 min 9 W/m 6,4 km/h (2 Bft) 97,87 %
25.10.2018 17:44 12,6 C 11,7 C 11,7 C 83 % 1016,0 hPa 0,0 l/m 0 min 0 min 7 W/m 9,7 km/h (2 Bft) 97,87 %
25.10.2018 17:46 12,6 C 11,7 C 11,7 C 84 % 1015,9 hPa 0,0 l/m 0 min 0 min 7 W/m 9,7 km/h (2 Bft) 97,87 %
25.10.2018 17:48 12,6 C 11,7 C 11,7 C 84 % 1015,9 hPa 0,0 l/m 0 min 0 min 7 W/m 6,4 km/h (2 Bft) 93,62 %
25.10.2018 17:50 12,6 C 11,7 C 11,7 C 84 % 1015,9 hPa 0,0 l/m 0 min 0 min 6 W/m 6,4 km/h (2 Bft) 97,87 %
25.10.2018 17:52 12,6 C 11,7 C 11,7 C 84 % 1015,9 hPa 0,0 l/m 0 min 0 min 5 W/m 6,4 km/h (2 Bft) 97,83 %
25.10.2018 17:54 12,6 C 11,7 C 11,7 C 84 % 1015,9 hPa 0,0 l/m 0 min 0 min 7 W/m 9,7 km/h (2 Bft) 97,87 %
25.10.2018 17:56 12,5 C 11,7 C 11,7 C 84 % 1015,9 hPa 0,0 l/m 0 min 0 min 7 W/m 6,4 km/h (2 Bft) 95,74 %
25.10.2018 17:58 12,5 C 11,7 C 11,7 C 84 % 1015,9 hPa 0,0 l/m 0 min 0 min 6 W/m 6,4 km/h (2 Bft) 97,87 %
25.10.2018 18:00 12,5 C 11,7 C 11,7 C 84 % 1015,9 hPa 0,0 l/m 0 min 0 min 5 W/m 6,4 km/h (2 Bft) 95,74 %
25.10.2018 18:02 12,5 C 11,7 C 11,7 C 84 % 1015,9 hPa 0,0 l/m 0 min 0 min 5 W/m 6,4 km/h (2 Bft) 97,87 %
25.10.2018 18:04 12,5 C 11,7 C 11,7 C 84 % 1015,9 hPa 0,0 l/m 0 min 0 min 1 W/m 6,4 km/h (2 Bft) 95,65 %
25.10.2018 18:07 12,4 C 11,7 C 11,7 C 84 % 1015,9 hPa 0,0 l/m 0 min 0 min 0 W/m 9,7 km/h (2 Bft) 95,65 %
25.10.2018 18:08 12,4 C 11,7 C 11,7 C 84 % 1015,9 hPa 0,0 l/m 0 min 0 min 0 W/m 9,7 km/h (2 Bft) 96,84 %
25.10.2018 18:10 12,4 C 11,7 C 11,7 C 84 % 1015,9 hPa 0,0 l/m 0 min 0 min 0 W/m 12,9 km/h (3 Bft) 97,87 %
25.10.2018 18:12 12,4 C 11,7 C 11,7 C 84 % 1015,9 hPa 0,0 l/m 0 min 0 min 0 W/m 3,2 km/h (1 Bft) 97,87 %
25.10.2018 18:14 12,4 C 11,7 C 11,7 C 84 % 1015,9 hPa 0,0 l/m 0 min 0 min 0 W/m 9,7 km/h (2 Bft) 95,74 %
25.10.2018 18:16 12,4 C 11,7 C 11,7 C 84 % 1015,8 hPa 0,0 l/m 0 min 0 min 0 W/m 3,2 km/h (1 Bft) 95,74 %
25.10.2018 18:18 12,4 C 11,7 C 11,7 C 84 % 1015,8 hPa 0,0 l/m 0 min 0 min 0 W/m 6,4 km/h (2 Bft) 93,62 %
25.10.2018 18:20 12,4 C 11,7 C 11,7 C 84 % 1015,7 hPa 0,0 l/m 0 min 0 min 0 W/m 3,2 km/h (1 Bft) 95,65 %
25.10.2018 18:22 12,4 C 11,7 C 11,7 C 84 % 1015,7 hPa 0,0 l/m 0 min 0 min 0 W/m 12,9 km/h (3 Bft) 97,87 %
25.10.2018 18:24 12,4 C 11,7 C 11,7 C 84 % 1015,7 hPa 0,0 l/m 0 min 0 min 0 W/m 3,2 km/h (1 Bft) 97,87 %
25.10.2018 18:26 12,4 C 11,7 C 11,1 C 84 % 1015,7 hPa 0,0 l/m 0 min 0 min 0 W/m 3,2 km/h (1 Bft) 97,87 %
25.10.2018 18:28 12,4 C 11,7 C 11,1 C 84 % 1015,7 hPa 0,0 l/m 0 min 0 min 0 W/m 6,4 km/h (2 Bft) 97,87 %
25.10.2018 18:30 12,4 C 11,7 C 11,1 C 84 % 1015,7 hPa 0,0 l/m 0 min 0 min 0 W/m 3,2 km/h (1 Bft) 95,74 %
25.10.2018 18:32 12,4 C 11,7 C 11,1 C 84 % 1015,7 hPa 0,0 l/m 0 min 0 min 0 W/m 3,2 km/h (1 Bft) 97,83 %
25.10.2018 18:34 12,4 C 11,7 C 11,1 C 84 % 1015,8 hPa 0,0 l/m 0 min 0 min 0 W/m 3,2 km/h (1 Bft) 97,87 %
25.10.2018 18:38 12,3 C 11,7 C 11,1 C 84 % 1015,7 hPa 0,0 l/m 0 min 0 min 0 W/m 9,7 km/h (2 Bft) 97,87 %
25.10.2018 18:40 12,3 C 11,7 C 11,1 C 84 % 1015,7 hPa 0,0 l/m 0 min 0 min 0 W/m 3,2 km/h (1 Bft) 97,87 %
25.10.2018 18:42 12,3 C 11,7 C 11,1 C 84 % 1015,7 hPa 0,0 l/m 0 min 0 min 0 W/m 3,2 km/h (1 Bft) 95,74 %
25.10.2018 18:44 12,3 C 11,7 C 11,1 C 84 % 1015,7 hPa 0,0 l/m 0 min 0 min 0 W/m 3,2 km/h (1 Bft) 97,83 %
25.10.2018 18:46 12,3 C 11,7 C 11,1 C 85 % 1015,7 hPa 0,0 l/m 0 min 0 min 0 W/m 3,2 km/h (1 Bft) 95,74 %
25.10.2018 18:48 12,3 C 11,7 C 11,1 C 85 % 1015,7 hPa 0,0 l/m 0 min 0 min 0 W/m 6,4 km/h (2 Bft) 97,87 %
25.10.2018 18:50 12,3 C 11,7 C 11,1 C 85 % 1015,8 hPa 0,0 l/m 0 min 0 min 0 W/m 3,2 km/h (1 Bft) 97,87 %
25.10.2018 18:52 12,3 C 11,7 C 11,1 C 85 % 1015,8 hPa 0,0 l/m 0 min 0 min 0 W/m 6,4 km/h (2 Bft) 97,87 %
25.10.2018 18:54 12,3 C 11,7 C 11,1 C 85 % 1015,8 hPa 0,0 l/m 0 min 0 min 0 W/m 6,4 km/h (2 Bft) 97,83 %
25.10.2018 18:56 12,3 C 11,7 C 11,1 C 85 % 1015,8 hPa 0,0 l/m 0 min 0 min 0 W/m 6,4 km/h (2 Bft) 97,87 %
25.10.2018 18:58 12,3 C 11,7 C 11,1 C 85 % 1015,8 hPa 0,0 l/m 0 min 0 min 0 W/m 6,4 km/h (2 Bft) 95,74 %
25.10.2018 19:00 12,2 C 11,7 C 11,1 C 85 % 1015,8 hPa 0,0 l/m 0 min 0 min 0 W/m 6,4 km/h (2 Bft) 95,74 %
25.10.2018 19:02 12,2 C 11,7 C 11,1 C 85 % 1015,8 hPa 0,0 l/m 0 min 0 min 0 W/m 6,4 km/h (2 Bft) 97,87 %
25.10.2018 19:04 12,2 C 11,7 C 11,1 C 85 % 1015,7 hPa 0,0 l/m 0 min 0 min 0 W/m 3,2 km/h (1 Bft) 97,87 %
25.10.2018 19:08 12,2 C 11,7 C 11,1 C 85 % 1015,8 hPa 0,0 l/m 0 min 0 min 0 W/m 6,4 km/h (2 Bft) 97,85 %
25.10.2018 19:10 12,2 C 11,7 C 11,1 C 85 % 1015,8 hPa 0,0 l/m 0 min 0 min 0 W/m 0,0 km/h (0 Bft) 97,87 %
25.10.2018 19:12 12,2 C 11,7 C 11,1 C 85 % 1015,8 hPa 0,0 l/m 0 min 0 min 0 W/m 6,4 km/h (2 Bft) 95,74 %
25.10.2018 19:14 12,2 C 11,7 C 11,1 C 85 % 1015,8 hPa 0,0 l/m 0 min 0 min 0 W/m 6,4 km/h (2 Bft) 93,62 %
25.10.2018 19:16 12,2 C 11,7 C 11,1 C 85 % 1015,8 hPa 0,0 l/m 0 min 0 min 0 W/m 6,4 km/h (2 Bft) 95,74 %
25.10.2018 19:18 12,2 C 11,7 C 11,1 C 85 % 1015,8 hPa 0,0 l/m 0 min 0 min 0 W/m 6,4 km/h (2 Bft) 95,65 %
25.10.2018 19:20 12,2 C 11,7 C 11,1 C 85 % 1015,8 hPa 0,0 l/m 0 min 0 min 0 W/m 3,2 km/h (1 Bft) 95,74 %
25.10.2018 19:22 12,2 C 11,7 C 11,1 C 85 % 1015,7 hPa 0,0 l/m 0 min 0 min 0 W/m 3,2 km/h (1 Bft) 95,74 %
25.10.2018 19:24 12,2 C 11,7 C 11,1 C 85 % 1015,8 hPa 0,0 l/m 0 min 0 min 0 W/m 3,2 km/h (1 Bft) 97,87 %
25.10.2018 19:26 12,2 C 11,7 C 11,1 C 85 % 1015,8 hPa 0,0 l/m 0 min 0 min 0 W/m 3,2 km/h (1 Bft) 97,87 %
25.10.2018 19:28 12,2 C 11,7 C 11,1 C 85 % 1015,7 hPa 0,0 l/m 0 min 0 min 0 W/m 3,2 km/h (1 Bft) 97,87 %
25.10.2018 19:30 12,2 C 11,7 C 11,1 C 85 % 1015,7 hPa 0,0 l/m 0 min 0 min 0 W/m 6,4 km/h (2 Bft) 97,83 %
25.10.2018 19:32 12,1 C 11,7 C 11,1 C 85 % 1015,7 hPa 0,0 l/m 0 min 0 min 0 W/m 3,2 km/h (1 Bft) 91,84 %
25.10.2018 19:34 12,2 C 11,7 C 11,1 C 85 % 1015,7 hPa 0,0 l/m 0 min 0 min 0 W/m 3,2 km/h (1 Bft) 95,74 %
25.10.2018 19:38 12,1 C 11,7 C 11,1 C 85 % 1015,7 hPa 0,0 l/m 0 min 0 min 0 W/m 6,4 km/h (2 Bft) 97,87 %
25.10.2018 19:40 12,1 C 11,7 C 11,1 C 85 % 1015,7 hPa 0,0 l/m 0 min 0 min 0 W/m 9,7 km/h (2 Bft) 97,87 %
25.10.2018 19:42 12,1 C 11,7 C 11,1 C 85 % 1015,7 hPa 0,0 l/m 0 min 0 min 0 W/m 3,2 km/h (1 Bft) 95,65 %
25.10.2018 19:44 12,1 C 11,7 C 11,1 C 85 % 1015,7 hPa 0,0 l/m 0 min 0 min 0 W/m 3,2 km/h (1 Bft) 97,87 %
25.10.2018 19:46 12,1 C 11,7 C 11,1 C 85 % 1015,7 hPa 0,0 l/m 0 min 0 min 0 W/m 3,2 km/h (1 Bft) 97,87 %
25.10.2018 19:48 12,1 C 11,7 C 11,1 C 85 % 1015,7 hPa 0,0 l/m 0 min 0 min 0 W/m 9,7 km/h (2 Bft) 95,74 %
25.10.2018 19:50 12,1 C 11,7 C 11,1 C 85 % 1015,6 hPa 0,0 l/m 0 min 0 min 0 W/m 6,4 km/h (2 Bft) 95,74 %
25.10.2018 19:52 12,1 C 11,7 C 11,1 C 85 % 1015,6 hPa 0,0 l/m 0 min 0 min 0 W/m 3,2 km/h (1 Bft) 95,65 %
25.10.2018 19:54 12,1 C 11,7 C 11,1 C 85 % 1015,6 hPa 0,0 l/m 0 min 0 min 0 W/m 12,9 km/h (3 Bft) 97,87 %
25.10.2018 19:56 12,1 C 11,7 C 11,1 C 85 % 1015,6 hPa 0,0 l/m 0 min 0 min 0 W/m 6,4 km/h (2 Bft) 97,87 %
25.10.2018 19:58 12,1 C 11,7 C 11,1 C 85 % 1015,6 hPa 0,0 l/m 0 min 0 min 0 W/m 9,7 km/h (2 Bft) 97,87 %
25.10.2018 20:00 12,1 C 11,7 C 11,1 C 85 % 1015,6 hPa 0,0 l/m 0 min 0 min 0 W/m 9,7 km/h (2 Bft) 100,00 %
25.10.2018 20:02 12,0 C 11,7 C 11,1 C 85 % 1015,5 hPa 0,0 l/m 0 min 0 min 0 W/m 16,1 km/h (3 Bft) 100,00 %
25.10.2018 20:04 12,0 C 11,7 C 11,1 C 85 % 1015,6 hPa 0,0 l/m 0 min 0 min 0 W/m 9,7 km/h (2 Bft) 97,83 %
25.10.2018 20:08 12,0 C 11,7 C 11,1 C 85 % 1015,6 hPa 0,0 l/m 0 min 0 min 0 W/m 9,7 km/h (2 Bft) 100,00 %
25.10.2018 20:10 12,0 C 11,7 C 11,1 C 85 % 1015,6 hPa 0,0 l/m 0 min 0 min 0 W/m 6,4 km/h (2 Bft) 100,00 %
25.10.2018 20:12 12,0 C 11,7 C 11,1 C 85 % 1015,6 hPa 0,0 l/m 0 min 0 min 0 W/m 6,4 km/h (2 Bft) 95,74 %
25.10.2018 20:14 12,0 C 11,7 C 11,1 C 85 % 1015,5 hPa 0,0 l/m 0 min 0 min 0 W/m 6,4 km/h (2 Bft) 97,87 %
25.10.2018 20:16 12,0 C 11,1 C 11,1 C 85 % 1015,5 hPa 0,0 l/m 0 min 0 min 0 W/m 6,4 km/h (2 Bft) 100,00 %
25.10.2018 20:18 11,9 C 11,1 C 11,1 C 85 % 1015,4 hPa 0,0 l/m 0 min 0 min 0 W/m 6,4 km/h (2 Bft) 100,00 %
25.10.2018 20:20 11,9 C 11,1 C 11,1 C 85 % 1015,4 hPa 0,0 l/m 0 min 0 min 0 W/m 6,4 km/h (2 Bft) 100,00 %
25.10.2018 20:22 11,9 C 11,1 C 11,1 C 85 % 1015,3 hPa 0,0 l/m 0 min 0 min 0 W/m 6,4 km/h (2 Bft) 97,87 %
25.10.2018 20:24 11,9 C 11,7 C 11,1 C 85 % 1015,3 hPa 0,0 l/m 0 min 0 min 0 W/m 9,7 km/h (2 Bft) 97,87 %
25.10.2018 20:26 11,9 C 11,7 C 11,1 C 85 % 1015,3 hPa 0,0 l/m 0 min 0 min 0 W/m 6,4 km/h (2 Bft) 95,74 %
25.10.2018 20:28 11,9 C 11,1 C 11,1 C 85 % 1015,3 hPa 0,0 l/m 0 min 0 min 0 W/m 9,7 km/h (2 Bft) 97,83 %
25.10.2018 20:30 11,9 C 11,1 C 11,1 C 85 % 1015,3 hPa 0,0 l/m 0 min 0 min 0 W/m 6,4 km/h (2 Bft) 97,87 %
25.10.2018 20:32 11,9 C 11,1 C 11,1 C 85 % 1015,3 hPa 0,0 l/m 0 min 0 min 0 W/m 9,7 km/h (2 Bft) 97,87 %
25.10.2018 20:34 11,9 C 11,1 C 11,1 C 85 % 1015,3 hPa 0,0 l/m 0 min 0 min 0 W/m 9,7 km/h (2 Bft) 97,87 %
25.10.2018 20:38 11,9 C 11,1 C 11,1 C 85 % 1015,4 hPa 0,0 l/m 0 min 0 min 0 W/m 9,7 km/h (2 Bft) 96,81 %
25.10.2018 20:40 11,9 C 11,1 C 11,1 C 85 % 1015,3 hPa 0,0 l/m 0 min 0 min 0 W/m 6,4 km/h (2 Bft) 97,83 %
25.10.2018 20:42 11,9 C 11,1 C 11,1 C 85 % 1015,3 hPa 0,0 l/m 0 min 0 min 0 W/m 6,4 km/h (2 Bft) 97,87 %
25.10.2018 20:44 11,9 C 11,1 C 11,1 C 85 % 1015,3 hPa 0,0 l/m 0 min 0 min 0 W/m 6,4 km/h (2 Bft) 97,87 %
25.10.2018 20:46 11,9 C 11,1 C 11,1 C 85 % 1015,3 hPa 0,0 l/m 0 min 0 min 0 W/m 9,7 km/h (2 Bft) 97,87 %
25.10.2018 20:48 11,9 C 11,1 C 11,1 C 85 % 1015,3 hPa 0,0 l/m 0 min 0 min 0 W/m 6,4 km/h (2 Bft) 97,87 %
25.10.2018 20:50 11,9 C 11,1 C 11,1 C 85 % 1015,2 hPa 0,0 l/m 0 min 0 min 0 W/m 3,2 km/h (1 Bft) 97,83 %
25.10.2018 20:52 11,9 C 11,1 C 11,1 C 85 % 1015,2 hPa 0,0 l/m 0 min 0 min 0 W/m 6,4 km/h (2 Bft) 97,87 %
25.10.2018 20:54 11,9 C 11,1 C 11,1 C 85 % 1015,2 hPa 0,0 l/m 0 min 0 min 0 W/m 9,7 km/h (2 Bft) 95,74 %
25.10.2018 20:56 11,9 C 11,1 C 11,1 C 85 % 1015,2 hPa 0,0 l/m 0 min 0 min 0 W/m 3,2 km/h (1 Bft) 97,87 %
25.10.2018 20:58 11,9 C 11,1 C 11,1 C 85 % 1015,2 hPa 0,0 l/m 0 min 0 min 0 W/m 6,4 km/h (2 Bft) 97,87 %
25.10.2018 21:00 11,9 C 11,1 C 11,1 C 85 % 1015,2 hPa 0,0 l/m 0 min 0 min 0 W/m 6,4 km/h (2 Bft) 95,74 %
25.10.2018 21:02 11,9 C 11,1 C 11,1 C 85 % 1015,1 hPa 0,0 l/m 0 min 0 min 0 W/m 16,1 km/h (3 Bft) 91,30 %
25.10.2018 21:04 11,9 C 11,1 C 11,1 C 85 % 1015,1 hPa 0,0 l/m 0 min 0 min 0 W/m 9,7 km/h (2 Bft) 97,87 %
25.10.2018 21:08 11,8 C 11,1 C 11,1 C 85 % 1015,1 hPa 0,0 l/m 0 min 0 min 0 W/m 12,9 km/h (3 Bft) 97,87 %
25.10.2018 21:10 11,8 C 11,1 C 11,1 C 85 % 1015,0 hPa 0,0 l/m 0 min 0 min 0 W/m 9,7 km/h (2 Bft) 95,74 %
25.10.2018 21:12 11,8 C 11,1 C 11,1 C 85 % 1015,0 hPa 0,0 l/m 0 min 0 min 0 W/m 9,7 km/h (2 Bft) 100,00 %
25.10.2018 21:14 11,8 C 11,1 C 11,1 C 85 % 1015,0 hPa 0,0 l/m 0 min 0 min 0 W/m 6,4 km/h (2 Bft) 100,00 %
25.10.2018 21:16 11,8 C 11,1 C 11,1 C 85 % 1015,0 hPa 0,0 l/m 0 min 0 min 0 W/m 12,9 km/h (3 Bft) 100,00 %
25.10.2018 21:18 11,8 C 11,1 C 11,1 C 85 % 1015,0 hPa 0,0 l/m 0 min 0 min 0 W/m 6,4 km/h (2 Bft) 97,87 %
25.10.2018 21:20 11,8 C 11,1 C 11,1 C 85 % 1015,0 hPa 0,0 l/m 0 min 0 min 0 W/m 9,7 km/h (2 Bft) 100,00 %
25.10.2018 21:22 11,8 C 11,1 C 11,1 C 85 % 1015,0 hPa 0,0 l/m 0 min 0 min 0 W/m 6,4 km/h (2 Bft) 97,87 %
25.10.2018 21:24 11,8 C 11,1 C 11,1 C 85 % 1015,0 hPa 0,0 l/m 0 min 0 min 0 W/m 6,4 km/h (2 Bft) 100,00 %
25.10.2018 21:26 11,8 C 11,1 C 11,1 C 85 % 1015,0 hPa 0,0 l/m 0 min 0 min 0 W/m 9,7 km/h (2 Bft) 100,00 %
25.10.2018 21:28 11,8 C 11,1 C 11,1 C 85 % 1015,0 hPa 0,0 l/m 0 min 0 min 0 W/m 6,4 km/h (2 Bft) 97,87 %
25.10.2018 21:30 11,8 C 11,1 C 11,1 C 85 % 1015,0 hPa 0,0 l/m 0 min 0 min 0 W/m 9,7 km/h (2 Bft) 100,00 %
25.10.2018 21:32 11,8 C 11,1 C 11,1 C 85 % 1014,9 hPa 0,0 l/m 0 min 0 min 0 W/m 6,4 km/h (2 Bft) 97,87 %
25.10.2018 21:34 11,8 C 11,1 C 11,1 C 85 % 1014,9 hPa 0,0 l/m 0 min 0 min 0 W/m 6,4 km/h (2 Bft) 100,00 %
25.10.2018 21:38 11,8 C 11,1 C 11,1 C 85 % 1014,9 hPa 0,0 l/m 0 min 0 min 0 W/m 6,4 km/h (2 Bft) 100,00 %
25.10.2018 21:40 11,8 C 11,1 C 11,1 C 85 % 1014,9 hPa 0,0 l/m 0 min 0 min 0 W/m 6,4 km/h (2 Bft) 100,00 %
25.10.2018 21:42 11,8 C 11,1 C 11,1 C 85 % 1014,9 hPa 0,0 l/m 0 min 0 min 0 W/m 9,7 km/h (2 Bft) 100,00 %
25.10.2018 21:44 11,8 C 11,1 C 11,1 C 85 % 1014,9 hPa 0,0 l/m 0 min 0 min 0 W/m 6,4 km/h (2 Bft) 100,00 %
25.10.2018 21:46 11,8 C 11,1 C 11,1 C 85 % 1014,9 hPa 0,0 l/m 0 min 0 min 0 W/m 6,4 km/h (2 Bft) 100,00 %
25.10.2018 21:48 11,7 C 11,1 C 11,1 C 85 % 1015,0 hPa 0,0 l/m 0 min 0 min 0 W/m 6,4 km/h (2 Bft) 100,00 %
25.10.2018 21:50 11,7 C 11,1 C 11,1 C 85 % 1015,0 hPa 0,0 l/m 0 min 0 min 0 W/m 3,2 km/h (1 Bft) 100,00 %
25.10.2018 21:52 11,7 C 11,1 C 10,6 C 85 % 1015,0 hPa 0,0 l/m 0 min 0 min 0 W/m 6,4 km/h (2 Bft) 100,00 %
25.10.2018 21:54 11,7 C 11,1 C 10,6 C 85 % 1014,9 hPa 0,0 l/m 0 min 0 min 0 W/m 9,7 km/h (2 Bft) 97,87 %
25.10.2018 21:56 11,7 C 11,1 C 10,6 C 85 % 1014,8 hPa 0,0 l/m 0 min 0 min 0 W/m 6,4 km/h (2 Bft) 100,00 %
25.10.2018 21:58 11,7 C 11,1 C 10,6 C 85 % 1014,9 hPa 0,0 l/m 0 min 0 min 0 W/m 9,7 km/h (2 Bft) 97,87 %
25.10.2018 22:00 11,7 C 11,1 C 10,6 C 85 % 1014,9 hPa 0,0 l/m 0 min 0 min 0 W/m 6,4 km/h (2 Bft) 100,00 %
25.10.2018 22:02 11,7 C 11,1 C 10,6 C 85 % 1014,8 hPa 0,0 l/m 0 min 0 min 0 W/m 9,7 km/h (2 Bft) 93,75 %
25.10.2018 22:04 11,7 C 11,1 C 10,6 C 85 % 1014,8 hPa 0,0 l/m 0 min 0 min 0 W/m 9,7 km/h (2 Bft) 97,83 %
25.10.2018 22:08 11,7 C 11,1 C 10,6 C 85 % 1014,8 hPa 0,0 l/m 0 min 0 min 0 W/m 3,2 km/h (1 Bft) 94,62 %
25.10.2018 22:10 11,7 C 11,1 C 10,6 C 85 % 1014,8 hPa 0,0 l/m 0 min 0 min 0 W/m 9,7 km/h (2 Bft) 95,74 %
25.10.2018 22:12 11,7 C 11,1 C 10,6 C 85 % 1014,8 hPa 0,0 l/m 0 min 0 min 0 W/m 6,4 km/h (2 Bft) 95,74 %
25.10.2018 22:14 11,7 C 11,1 C 10,6 C 85 % 1014,8 hPa 0,0 l/m 0 min 0 min 0 W/m 3,2 km/h (1 Bft) 95,74 %
25.10.2018 22:16 11,7 C 11,1 C 10,6 C 85 % 1014,8 hPa 0,0 l/m 0 min 0 min 0 W/m 3,2 km/h (1 Bft) 95,74 %
25.10.2018 22:18 11,7 C 11,1 C 10,6 C 85 % 1014,8 hPa 0,0 l/m 0 min 0 min 0 W/m 9,7 km/h (2 Bft) 95,65 %
25.10.2018 22:20 11,6 C 11,1 C 10,6 C 85 % 1014,8 hPa 0,0 l/m 0 min 0 min 0 W/m 6,4 km/h (2 Bft) 95,74 %
25.10.2018 22:22 11,6 C 11,1 C 10,6 C 85 % 1014,8 hPa 0,0 l/m 0 min 0 min 0 W/m 6,4 km/h (2 Bft) 93,62 %
25.10.2018 22:24 11,6 C 10,6 C 10,6 C 85 % 1014,8 hPa 0,0 l/m 0 min 0 min 0 W/m 6,4 km/h (2 Bft) 93,62 %
25.10.2018 22:26 11,6 C 11,1 C 10,6 C 85 % 1014,8 hPa 0,0 l/m 0 min 0 min 0 W/m 6,4 km/h (2 Bft) 95,74 %
25.10.2018 22:28 11,6 C 10,6 C 10,6 C 85 % 1014,8 hPa 0,0 l/m 0 min 0 min 0 W/m 3,2 km/h (1 Bft) 95,74 %
25.10.2018 22:30 11,6 C 10,6 C 10,6 C 85 % 1014,8 hPa 0,0 l/m 0 min 0 min 0 W/m 6,4 km/h (2 Bft) 95,65 %
25.10.2018 22:32 11,6 C 10,6 C 10,6 C 85 % 1014,8 hPa 0,0 l/m 0 min 0 min 0 W/m 3,2 km/h (1 Bft) 95,74 %
25.10.2018 22:34 11,6 C 10,6 C 10,6 C 86 % 1014,8 hPa 0,0 l/m 0 min 0 min 0 W/m 3,2 km/h (1 Bft) 95,74 %
25.10.2018 22:38 11,6 C 10,6 C 10,6 C 86 % 1014,8 hPa 0,0 l/m 0 min 0 min 0 W/m 6,4 km/h (2 Bft) 95,18 %
25.10.2018 22:40 11,6 C 10,6 C 10,6 C 86 % 1014,8 hPa 0,0 l/m 0 min 0 min 0 W/m 9,7 km/h (2 Bft) 95,65 %
25.10.2018 22:42 11,5 C 10,6 C 10,6 C 86 % 1014,7 hPa 0,0 l/m 0 min 0 min 0 W/m 6,4 km/h (2 Bft) 95,74 %
25.10.2018 22:44 11,5 C 10,6 C 10,6 C 86 % 1014,7 hPa 0,0 l/m 0 min 0 min 0 W/m 9,7 km/h (2 Bft) 95,74 %
25.10.2018 22:46 11,5 C 10,6 C 10,6 C 86 % 1014,7 hPa 0,0 l/m 0 min 0 min 0 W/m 6,4 km/h (2 Bft) 93,62 %
25.10.2018 22:48 11,5 C 10,6 C 10,6 C 86 % 1014,7 hPa 0,0 l/m 0 min 0 min 0 W/m 6,4 km/h (2 Bft) 93,62 %
25.10.2018 22:50 11,4 C 10,6 C 10,6 C 86 % 1014,6 hPa 0,0 l/m 0 min 0 min 0 W/m 6,4 km/h (2 Bft) 95,65 %
25.10.2018 22:52 11,4 C 10,6 C 10,6 C 86 % 1014,7 hPa 0,0 l/m 0 min 0 min 0 W/m 3,2 km/h (1 Bft) 95,74 %
25.10.2018 22:54 11,4 C 10,6 C 10,6 C 86 % 1014,7 hPa 0,0 l/m 0 min 0 min 0 W/m 6,4 km/h (2 Bft) 91,49 %
25.10.2018 22:56 11,4 C 10,6 C 10,6 C 86 % 1014,6 hPa 0,0 l/m 0 min 0 min 0 W/m 6,4 km/h (2 Bft) 97,87 %
25.10.2018 22:58 11,4 C 10,6 C 10,6 C 86 % 1014,6 hPa 0,0 l/m 0 min 0 min 0 W/m 6,4 km/h (2 Bft) 95,74 %
25.10.2018 23:00 11,4 C 10,6 C 10,6 C 86 % 1014,7 hPa 0,0 l/m 0 min 0 min 0 W/m 6,4 km/h (2 Bft) 93,62 %
25.10.2018 23:02 11,4 C 10,6 C 10,6 C 86 % 1014,7 hPa 0,0 l/m 0 min 0 min 0 W/m 6,4 km/h (2 Bft) 95,65 %
25.10.2018 23:04 11,4 C 10,6 C 10,6 C 86 % 1014,6 hPa 0,0 l/m 0 min 0 min 0 W/m 16,1 km/h (3 Bft) 95,74 %
25.10.2018 23:08 11,4 C 10,6 C 10,6 C 86 % 1014,6 hPa 0,0 l/m 0 min 0 min 0 W/m 9,7 km/h (2 Bft) 95,74 %
25.10.2018 23:10 11,4 C 10,6 C 10,6 C 86 % 1014,7 hPa 0,0 l/m 0 min 0 min 0 W/m 12,9 km/h (3 Bft) 95,74 %
25.10.2018 23:12 11,4 C 10,6 C 10,6 C 86 % 1014,6 hPa 0,0 l/m 0 min 0 min 0 W/m 6,4 km/h (2 Bft) 97,87 %
25.10.2018 23:14 11,3 C 10,6 C 10,6 C 86 % 1014,6 hPa 0,0 l/m 0 min 0 min 0 W/m 6,4 km/h (2 Bft) 95,65 %
25.10.2018 23:16 11,3 C 10,6 C 10,6 C 86 % 1014,6 hPa 0,0 l/m 0 min 0 min 0 W/m 9,7 km/h (2 Bft) 97,92 %
25.10.2018 23:18 11,3 C 10,6 C 10,6 C 86 % 1014,6 hPa 0,0 l/m 0 min 0 min 0 W/m 6,4 km/h (2 Bft) 95,74 %
25.10.2018 23:20 11,3 C 10,6 C 10,6 C 86 % 1014,5 hPa 0,0 l/m 0 min 0 min 0 W/m 12,9 km/h (3 Bft) 97,87 %
25.10.2018 23:22 11,3 C 10,6 C 10,6 C 86 % 1014,4 hPa 0,0 l/m 0 min 0 min 0 W/m 16,1 km/h (3 Bft) 97,87 %
25.10.2018 23:24 11,3 C 10,6 C 10,6 C 86 % 1014,5 hPa 0,0 l/m 0 min 0 min 0 W/m 9,7 km/h (2 Bft) 95,74 %
25.10.2018 23:26 11,3 C 10,6 C 10,6 C 86 % 1014,5 hPa 0,0 l/m 0 min 0 min 0 W/m 6,4 km/h (2 Bft) 97,83 %
25.10.2018 23:28 11,3 C 10,6 C 10,6 C 86 % 1014,5 hPa 0,0 l/m 0 min 0 min 0 W/m 9,7 km/h (2 Bft) 97,87 %
25.10.2018 23:30 11,3 C 10,6 C 10,6 C 86 % 1014,4 hPa 0,0 l/m 0 min 0 min 0 W/m 9,7 km/h (2 Bft) 95,74 %
25.10.2018 23:32 11,3 C 10,6 C 10,6 C 86 % 1014,4 hPa 0,0 l/m 0 min 0 min 0 W/m 6,4 km/h (2 Bft) 97,87 %
25.10.2018 23:34 11,3 C 10,6 C 10,6 C 86 % 1014,4 hPa 0,0 l/m 0 min 0 min 0 W/m 6,4 km/h (2 Bft) 95,74 %
25.10.2018 23:38 11,3 C 10,6 C 10,6 C 86 % 1014,3 hPa 0,0 l/m 0 min 0 min 0 W/m 12,9 km/h (3 Bft) 97,85 %
25.10.2018 23:40 11,3 C 10,6 C 10,6 C 86 % 1014,4 hPa 0,0 l/m 0 min 0 min 0 W/m 6,4 km/h (2 Bft) 97,87 %
25.10.2018 23:42 11,3 C 10,6 C 10,6 C 86 % 1014,3 hPa 0,0 l/m 0 min 0 min 0 W/m 6,4 km/h (2 Bft) 95,74 %
25.10.2018 23:44 11,3 C 10,6 C 10,6 C 86 % 1014,4 hPa 0,0 l/m 0 min 0 min 0 W/m 6,4 km/h (2 Bft) 95,74 %
25.10.2018 23:46 11,3 C 10,6 C 10,6 C 86 % 1014,3 hPa 0,0 l/m 0 min 0 min 0 W/m 6,4 km/h (2 Bft) 97,87 %
25.10.2018 23:48 11,3 C 10,6 C 10,6 C 86 % 1014,3 hPa 0,0 l/m 0 min 0 min 0 W/m 9,7 km/h (2 Bft) 97,87 %
25.10.2018 23:50 11,3 C 10,6 C 10,6 C 86 % 1014,3 hPa 0,0 l/m 0 min 0 min 0 W/m 6,4 km/h (2 Bft) 93,48 %
25.10.2018 23:52 11,3 C 10,6 C 10,6 C 86 % 1014,3 hPa 0,0 l/m 0 min 0 min 0 W/m 3,2 km/h (1 Bft) 97,87 %
25.10.2018 23:54 11,3 C 10,6 C 10,6 C 86 % 1014,3 hPa 0,0 l/m 0 min 0 min 0 W/m 9,7 km/h (2 Bft) 95,74 %
25.10.2018 23:56 11,3 C 10,6 C 10,6 C 86 % 1014,3 hPa 0,0 l/m 0 min 0 min 0 W/m 9,7 km/h (2 Bft) 97,87 %
25.10.2018 23:58 11,3 C 10,6 C 10,6 C 86 % 1014,1 hPa 0,0 l/m 0 min 0 min 0 W/m 9,7 km/h (2 Bft) 97,87 %
_ Min-Zeit 23:14 22:24 08:10 13:00 23:58 - - - - 00:02 00:02
Minimum _ 11,3 C 10,6 C 10,6 C 81 % 1014,1 hPa - - - - 0,0 km/h (0 Bft) 9,52 %
_ Max-Zeit 13:38 12:42 12:22 03:10 00:00 00:00 00:00 07:44 13:40 07:48 01:08
Maximum _ 13,4 C 13,3 C 12,2 C 98 % 1021,4 hPa 0,0 l/m 0 min 2 min 162 W/m 25,7 km/h
NW (4 Bft)
100,00 %
Durchschnitt _ 12,4 C 11,8 C 11,5 C 89 % 1017,2 hPa #0,0 l/m #0 min. #2 min. 70 W/m 7,6 km/h (2 Bft) 97,25 %
© 2018 W. Hausmann